Time,TemperatureF,DewpointF,PressureIn,WindDirection,WindDirectionDegrees,WindSpeedMPH,WindSpeedGustMPH,Humidity,HourlyPrecipIn,Conditions,Clouds,dailyrainin,SoftwareType,DateUTC
2013-02-07 00:00:00,64.8,60.8,30.06,N/A,-737280,0.0,0.0,87,0.00,,,0.11,Wunderground v.1.13,2013-02-07 05:00:00,
2013-02-07 00:02:00,64.8,60.8,30.06,N/A,-737280,0.0,0.0,87,0.00,,,0.11,Wunderground v.1.13,2013-02-07 05:02:00,
2013-02-07 00:04:00,64.8,60.8,30.06,N/A,-737280,0.0,0.0,87,0.00,,,0.11,Wunderground v.1.13,2013-02-07 05:04:00,
2013-02-07 00:06:00,64.8,60.8,30.06,N/A,-737280,0.0,0.0,87,0.00,,,0.11,Wunderground v.1.13,2013-02-07 05:06:00,
2013-02-07 00:08:00,64.8,60.8,30.06,N/A,-737280,0.0,0.0,87,0.00,,,0.11,Wunderground v.1.13,2013-02-07 05:08:00,
2013-02-07 00:10:00,64.8,60.8,30.06,N/A,-737280,0.0,0.0,87,0.00,,,0.11,Wunderground v.1.13,2013-02-07 05:10:00,
2013-02-07 00:12:00,64.8,60.8,30.06,N/A,-737280,0.0,0.0,87,0.00,,,0.11,Wunderground v.1.13,2013-02-07 05:12:00,
2013-02-07 00:14:00,64.8,60.8,30.06,N/A,-737280,0.0,0.0,87,0.00,,,0.11,Wunderground v.1.13,2013-02-07 05:14:00,
2013-02-07 00:16:00,64.8,60.8,30.06,N/A,-737280,0.0,0.0,87,0.00,,,0.11,Wunderground v.1.13,2013-02-07 05:16:00,
2013-02-07 00:18:00,64.8,60.8,30.06,N/A,-737280,0.0,0.0,87,0.00,,,0.11,Wunderground v.1.13,2013-02-07 05:18:00,
2013-02-07 00:20:00,64.8,60.8,30.06,N/A,-737280,0.0,0.0,87,0.00,,,0.11,Wunderground v.1.13,2013-02-07 05:20:00,
2013-02-07 00:22:00,64.8,60.8,30.06,N/A,-737280,0.0,0.0,87,0.00,,,0.11,Wunderground v.1.13,2013-02-07 05:22:00,
2013-02-07 00:24:00,64.3,60.7,30.06,N/A,-737280,0.0,0.0,88,0.00,,,0.11,Wunderground v.1.13,2013-02-07 05:24:00,
2013-02-07 00:26:00,64.3,60.7,30.06,N/A,-737280,0.0,0.0,88,0.00,,,0.11,Wunderground v.1.13,2013-02-07 05:26:00,
2013-02-07 00:28:00,64.3,60.7,30.06,N/A,-737280,0.0,0.0,88,0.00,,,0.11,Wunderground v.1.13,2013-02-07 05:28:00,
2013-02-07 00:30:00,64.3,60.7,30.06,N/A,-737280,0.0,0.0,88,0.00,,,0.11,Wunderground v.1.13,2013-02-07 05:30:00,
2013-02-07 00:32:00,64.3,60.7,30.06,N/A,-737280,0.0,0.0,88,0.00,,,0.11,Wunderground v.1.13,2013-02-07 05:32:00,
2013-02-07 00:34:00,64.3,60.7,30.06,N/A,-737280,0.0,0.0,88,0.00,,,0.11,Wunderground v.1.13,2013-02-07 05:34:00,
2013-02-07 00:36:00,64.3,60.7,30.06,N/A,-737280,0.0,0.0,88,0.00,,,0.11,Wunderground v.1.13,2013-02-07 05:36:00,
2013-02-07 00:38:00,64.1,60.8,30.06,N/A,-737280,0.0,0.0,89,0.00,,,0.11,Wunderground v.1.13,2013-02-07 05:38:00,
2013-02-07 00:40:00,64.1,60.8,30.06,N/A,-737280,0.0,0.0,89,0.00,,,0.11,Wunderground v.1.13,2013-02-07 05:40:00,
2013-02-07 00:42:00,64.1,60.8,30.06,N/A,-737280,0.0,0.0,89,0.00,,,0.11,Wunderground v.1.13,2013-02-07 05:42:00,
2013-02-07 00:44:00,64.1,60.8,30.06,N/A,-737280,0.0,0.0,89,0.00,,,0.11,Wunderground v.1.13,2013-02-07 05:44:00,
2013-02-07 00:46:00,64.1,60.8,30.06,N/A,-737280,0.0,0.0,89,0.00,,,0.11,Wunderground v.1.13,2013-02-07 05:46:00,
2013-02-07 00:48:00,64.1,60.8,30.06,N/A,-737280,0.0,0.0,89,0.00,,,0.11,Wunderground v.1.13,2013-02-07 05:48:00,
2013-02-07 00:50:00,64.1,60.8,30.06,N/A,-737280,0.0,0.0,89,0.00,,,0.11,Wunderground v.1.13,2013-02-07 05:50:00,
2013-02-07 00:52:00,64.1,60.8,30.06,N/A,-737280,0.0,0.0,89,0.00,,,0.11,Wunderground v.1.13,2013-02-07 05:52:00,
2013-02-07 00:54:00,63.8,60.5,30.05,N/A,-737280,0.0,0.0,89,0.00,,,0.11,Wunderground v.1.13,2013-02-07 05:54:00,
2013-02-07 00:56:00,63.8,60.5,30.05,N/A,-737280,0.0,0.0,89,0.00,,,0.11,Wunderground v.1.13,2013-02-07 05:56:00,
2013-02-07 00:58:00,63.8,60.5,30.05,N/A,-737280,0.0,0.0,89,0.00,,,0.11,Wunderground v.1.13,2013-02-07 05:58:00,
2013-02-07 01:00:00,63.8,60.5,30.05,N/A,-737280,0.0,0.0,89,0.00,,,0.11,Wunderground v.1.13,2013-02-07 06:00:00,
2013-02-07 01:02:00,63.8,60.5,30.05,N/A,-737280,0.0,0.0,89,0.00,,,0.11,Wunderground v.1.13,2013-02-07 06:02:00,
2013-02-07 01:04:00,63.8,60.5,30.05,N/A,-737280,0.0,0.0,89,0.00,,,0.11,Wunderground v.1.13,2013-02-07 06:04:00,
2013-02-07 01:06:00,63.8,60.5,30.05,N/A,-737280,0.0,0.0,89,0.00,,,0.11,Wunderground v.1.13,2013-02-07 06:06:00,
2013-02-07 01:08:00,64.0,61.0,30.05,N/A,-737280,0.0,0.0,90,0.00,,,0.11,Wunderground v.1.13,2013-02-07 06:08:00,
2013-02-07 01:10:00,64.0,61.0,30.05,N/A,-737280,0.0,0.0,90,0.00,,,0.11,Wunderground v.1.13,2013-02-07 06:10:00,
2013-02-07 01:12:00,64.0,61.0,30.05,N/A,-737280,0.0,0.0,90,0.00,,,0.11,Wunderground v.1.13,2013-02-07 06:12:00,
2013-02-07 01:14:00,64.0,61.0,30.05,N/A,-737280,0.0,0.0,90,0.00,,,0.11,Wunderground v.1.13,2013-02-07 06:14:00,
2013-02-07 01:16:00,64.0,61.0,30.05,N/A,-737280,0.0,0.0,90,0.00,,,0.11,Wunderground v.1.13,2013-02-07 06:16:00,
2013-02-07 01:18:00,64.0,61.0,30.05,N/A,-737280,0.0,0.0,90,0.00,,,0.11,Wunderground v.1.13,2013-02-07 06:18:00,
2013-02-07 01:20:00,64.0,61.0,30.05,N/A,-737280,0.0,0.0,90,0.00,,,0.11,Wunderground v.1.13,2013-02-07 06:20:00,
2013-02-07 01:22:00,64.0,61.0,30.05,N/A,-737280,0.0,0.0,90,0.00,,,0.11,Wunderground v.1.13,2013-02-07 06:22:00,
2013-02-07 01:24:00,64.9,61.9,30.05,N/A,-737280,0.0,0.0,90,0.00,,,0.11,Wunderground v.1.13,2013-02-07 06:24:00,
2013-02-07 01:26:00,64.9,61.9,30.05,N/A,-737280,0.0,0.0,90,0.00,,,0.11,Wunderground v.1.13,2013-02-07 06:26:00,
2013-02-07 01:28:00,64.9,61.9,30.05,N/A,-737280,0.0,0.0,90,0.00,,,0.11,Wunderground v.1.13,2013-02-07 06:28:00,
2013-02-07 01:30:00,64.9,61.9,30.05,N/A,-737280,0.0,0.0,90,0.00,,,0.11,Wunderground v.1.13,2013-02-07 06:30:00,
2013-02-07 01:32:00,64.9,61.9,30.05,N/A,-737280,0.0,0.0,90,0.00,,,0.11,Wunderground v.1.13,2013-02-07 06:32:00,
2013-02-07 01:34:00,64.9,61.9,30.05,N/A,-737280,0.0,0.0,90,0.00,,,0.11,Wunderground v.1.13,2013-02-07 06:34:00,
2013-02-07 01:36:00,64.9,61.9,30.05,N/A,-737280,0.0,0.0,90,0.00,,,0.11,Wunderground v.1.13,2013-02-07 06:36:00,
2013-02-07 01:38:00,65.9,62.6,30.05,SE,135,0.0,5.0,89,0.00,,,0.11,Wunderground v.1.13,2013-02-07 06:38:00,
2013-02-07 01:40:00,65.9,62.6,30.05,SE,135,0.0,5.0,89,0.00,,,0.11,Wunderground v.1.13,2013-02-07 06:40:00,
2013-02-07 01:42:00,65.9,62.6,30.05,SE,135,0.0,5.0,89,0.00,,,0.11,Wunderground v.1.13,2013-02-07 06:42:00,
2013-02-07 01:44:00,65.9,62.6,30.05,SE,135,0.0,5.0,89,0.00,,,0.11,Wunderground v.1.13,2013-02-07 06:44:00,
2013-02-07 01:46:00,65.9,62.6,30.05,SE,135,0.0,5.0,89,0.00,,,0.11,Wunderground v.1.13,2013-02-07 06:46:00,
2013-02-07 01:48:00,65.9,62.6,30.05,SE,135,0.0,5.0,89,0.00,,,0.11,Wunderground v.1.13,2013-02-07 06:48:00,
2013-02-07 01:50:00,65.9,62.6,30.05,SE,135,0.0,5.0,89,0.00,,,0.11,Wunderground v.1.13,2013-02-07 06:50:00,
2013-02-07 01:52:00,65.9,62.6,30.05,SE,135,0.0,5.0,89,0.00,,,0.11,Wunderground v.1.13,2013-02-07 06:52:00,
2013-02-07 01:54:00,66.1,62.8,30.05,SE,135,0.0,5.0,89,0.00,,,0.11,Wunderground v.1.13,2013-02-07 06:54:00,
2013-02-07 01:56:00,66.1,62.8,30.05,SE,135,0.0,5.0,89,0.00,,,0.11,Wunderground v.1.13,2013-02-07 06:56:00,
2013-02-07 01:58:00,66.1,62.8,30.05,SE,135,0.0,5.0,89,0.00,,,0.11,Wunderground v.1.13,2013-02-07 06:58:00,
2013-02-07 02:00:00,66.1,62.8,30.05,SE,135,0.0,5.0,89,0.00,,,0.11,Wunderground v.1.13,2013-02-07 07:00:00,
2013-02-07 02:02:00,66.1,62.8,30.05,SE,135,0.0,5.0,89,0.00,,,0.11,Wunderground v.1.13,2013-02-07 07:02:00,
2013-02-07 02:04:00,66.1,62.8,30.05,SE,135,0.0,5.0,89,0.00,,,0.11,Wunderground v.1.13,2013-02-07 07:04:00,
2013-02-07 02:06:00,66.1,62.8,30.05,SE,135,0.0,5.0,89,0.00,,,0.11,Wunderground v.1.13,2013-02-07 07:06:00,
2013-02-07 02:08:00,66.2,62.9,30.05,SSE,158,1.0,6.0,89,0.00,,,0.11,Wunderground v.1.13,2013-02-07 07:08:00,
2013-02-07 02:10:00,66.2,62.9,30.05,SSE,158,1.0,6.0,89,0.00,,,0.11,Wunderground v.1.13,2013-02-07 07:10:00,
2013-02-07 02:12:00,66.2,62.9,30.05,SSE,158,1.0,6.0,89,0.00,,,0.11,Wunderground v.1.13,2013-02-07 07:12:00,
2013-02-07 02:14:00,66.2,62.9,30.05,SSE,158,1.0,6.0,89,0.00,,,0.11,Wunderground v.1.13,2013-02-07 07:14:00,
2013-02-07 02:16:00,66.2,62.9,30.05,SSE,158,1.0,6.0,89,0.00,,,0.11,Wunderground v.1.13,2013-02-07 07:16:00,
2013-02-07 02:18:00,66.2,62.9,30.05,SSE,158,1.0,6.0,89,0.00,,,0.11,Wunderground v.1.13,2013-02-07 07:18:00,
2013-02-07 02:20:00,66.2,62.9,30.05,SSE,158,1.0,6.0,89,0.00,,,0.11,Wunderground v.1.13,2013-02-07 07:20:00,
2013-02-07 02:22:00,66.2,62.9,30.05,SSE,158,1.0,6.0,89,0.00,,,0.11,Wunderground v.1.13,2013-02-07 07:22:00,
2013-02-07 02:24:00,66.0,62.7,30.04,SSE,158,1.0,6.0,89,0.00,,,0.11,Wunderground v.1.13,2013-02-07 07:24:00,
2013-02-07 02:26:00,66.0,62.7,30.04,SSE,158,1.0,6.0,89,0.00,,,0.11,Wunderground v.1.13,2013-02-07 07:26:00,
2013-02-07 02:28:00,66.0,62.7,30.04,SSE,158,1.0,6.0,89,0.00,,,0.11,Wunderground v.1.13,2013-02-07 07:28:00,
2013-02-07 02:30:00,66.0,62.7,30.04,SSE,158,1.0,6.0,89,0.00,,,0.11,Wunderground v.1.13,2013-02-07 07:30:00,
2013-02-07 02:32:00,66.0,62.7,30.04,SSE,158,1.0,6.0,89,0.00,,,0.11,Wunderground v.1.13,2013-02-07 07:32:00,
2013-02-07 02:34:00,66.0,62.7,30.04,SSE,158,1.0,6.0,89,0.00,,,0.11,Wunderground v.1.13,2013-02-07 07:34:00,
2013-02-07 02:36:00,66.0,62.7,30.04,SSE,158,1.0,6.0,89,0.00,,,0.11,Wunderground v.1.13,2013-02-07 07:36:00,
2013-02-07 02:38:00,65.7,62.4,30.03,SSE,158,4.0,9.0,89,0.00,,,0.11,Wunderground v.1.13,2013-02-07 07:38:00,
2013-02-07 02:40:00,65.7,62.4,30.03,SSE,158,4.0,9.0,89,0.00,,,0.11,Wunderground v.1.13,2013-02-07 07:40:00,
2013-02-07 02:42:00,65.7,62.4,30.03,SSE,158,4.0,9.0,89,0.00,,,0.11,Wunderground v.1.13,2013-02-07 07:42:00,
2013-02-07 02:44:00,65.7,62.4,30.03,SSE,158,4.0,9.0,89,0.00,,,0.11,Wunderground v.1.13,2013-02-07 07:44:00,
2013-02-07 02:46:00,65.7,62.4,30.03,SSE,158,4.0,9.0,89,0.00,,,0.11,Wunderground v.1.13,2013-02-07 07:46:00,
2013-02-07 02:48:00,65.7,62.4,30.03,SSE,158,4.0,9.0,89,0.00,,,0.11,Wunderground v.1.13,2013-02-07 07:48:00,
2013-02-07 02:50:00,65.7,62.4,30.03,SSE,158,4.0,9.0,89,0.00,,,0.11,Wunderground v.1.13,2013-02-07 07:50:00,
2013-02-07 02:52:00,65.7,62.4,30.03,SSE,158,4.0,9.0,89,0.00,,,0.11,Wunderground v.1.13,2013-02-07 07:52:00,
2013-02-07 02:54:00,65.3,62.3,30.03,SSE,158,2.0,7.0,90,0.00,,,0.11,Wunderground v.1.13,2013-02-07 07:54:00,
2013-02-07 02:56:00,65.3,62.3,30.03,SSE,158,2.0,7.0,90,0.00,,,0.11,Wunderground v.1.13,2013-02-07 07:56:00,
2013-02-07 02:58:00,65.3,62.3,30.03,SSE,158,2.0,7.0,90,0.00,,,0.11,Wunderground v.1.13,2013-02-07 07:58:00,
2013-02-07 03:00:00,65.3,62.3,30.03,SSE,158,2.0,7.0,90,0.00,,,0.11,Wunderground v.1.13,2013-02-07 08:00:00,
2013-02-07 03:02:00,65.3,62.3,30.03,SSE,158,2.0,7.0,90,0.00,,,0.11,Wunderground v.1.13,2013-02-07 08:02:00,
2013-02-07 03:04:00,65.3,62.3,30.03,SSE,158,2.0,7.0,90,0.00,,,0.11,Wunderground v.1.13,2013-02-07 08:04:00,
2013-02-07 03:06:00,65.3,62.3,30.03,SSE,158,2.0,7.0,90,0.00,,,0.11,Wunderground v.1.13,2013-02-07 08:06:00,
2013-02-07 03:08:00,65.1,62.1,30.03,SSE,158,3.0,8.0,90,0.00,,,0.11,Wunderground v.1.13,2013-02-07 08:08:00,
2013-02-07 03:10:00,65.1,62.1,30.03,SSE,158,3.0,8.0,90,0.00,,,0.11,Wunderground v.1.13,2013-02-07 08:10:00,
2013-02-07 03:12:00,65.1,62.1,30.03,SSE,158,3.0,8.0,90,0.00,,,0.11,Wunderground v.1.13,2013-02-07 08:12:00,
2013-02-07 03:14:00,65.1,62.1,30.03,SSE,158,3.0,8.0,90,0.00,,,0.11,Wunderground v.1.13,2013-02-07 08:14:00,
2013-02-07 03:16:00,65.1,62.1,30.03,SSE,158,3.0,8.0,90,0.00,,,0.11,Wunderground v.1.13,2013-02-07 08:16:00,
2013-02-07 03:18:00,65.1,62.1,30.03,SSE,158,3.0,8.0,90,0.00,,,0.11,Wunderground v.1.13,2013-02-07 08:18:00,
2013-02-07 03:20:00,65.1,62.1,30.03,SSE,158,3.0,8.0,90,0.00,,,0.11,Wunderground v.1.13,2013-02-07 08:20:00,
2013-02-07 03:22:00,65.1,62.1,30.03,SSE,158,3.0,8.0,90,0.00,,,0.11,Wunderground v.1.13,2013-02-07 08:22:00,
2013-02-07 03:24:00,65.0,62.3,30.04,SSE,158,1.0,7.0,91,0.00,,,0.11,Wunderground v.1.13,2013-02-07 08:24:00,
2013-02-07 03:26:00,65.0,62.3,30.04,SSE,158,1.0,7.0,91,0.00,,,0.11,Wunderground v.1.13,2013-02-07 08:26:00,
2013-02-07 03:28:00,65.0,62.3,30.04,SSE,158,1.0,7.0,91,0.00,,,0.11,Wunderground v.1.13,2013-02-07 08:28:00,
2013-02-07 03:30:00,65.0,62.3,30.04,SSE,158,1.0,7.0,91,0.00,,,0.11,Wunderground v.1.13,2013-02-07 08:30:00,
2013-02-07 03:32:00,65.0,62.3,30.04,SSE,158,1.0,7.0,91,0.00,,,0.11,Wunderground v.1.13,2013-02-07 08:32:00,
2013-02-07 03:34:00,65.0,62.3,30.04,SSE,158,1.0,7.0,91,0.00,,,0.11,Wunderground v.1.13,2013-02-07 08:34:00,
2013-02-07 03:36:00,65.0,62.3,30.04,SSE,158,1.0,7.0,91,0.00,,,0.11,Wunderground v.1.13,2013-02-07 08:36:00,
2013-02-07 03:38:00,65.0,62.3,30.03,South,180,1.0,5.0,91,0.00,,,0.11,Wunderground v.1.13,2013-02-07 08:38:00,
2013-02-07 03:40:00,65.0,62.3,30.03,South,180,1.0,5.0,91,0.00,,,0.11,Wunderground v.1.13,2013-02-07 08:40:00,
2013-02-07 03:42:00,65.0,62.3,30.03,South,180,1.0,5.0,91,0.00,,,0.11,Wunderground v.1.13,2013-02-07 08:42:00,
2013-02-07 03:44:00,65.0,62.3,30.03,South,180,1.0,5.0,91,0.00,,,0.11,Wunderground v.1.13,2013-02-07 08:44:00,
2013-02-07 03:46:00,65.0,62.3,30.03,South,180,1.0,5.0,91,0.00,,,0.11,Wunderground v.1.13,2013-02-07 08:46:00,
2013-02-07 03:48:00,65.0,62.3,30.03,South,180,1.0,5.0,91,0.00,,,0.11,Wunderground v.1.13,2013-02-07 08:48:00,
2013-02-07 03:50:00,65.0,62.3,30.03,South,180,1.0,5.0,91,0.00,,,0.11,Wunderground v.1.13,2013-02-07 08:50:00,
2013-02-07 03:52:00,65.0,62.3,30.03,South,180,1.0,5.0,91,0.00,,,0.11,Wunderground v.1.13,2013-02-07 08:52:00,
2013-02-07 03:54:00,65.0,62.3,30.03,SSE,158,1.0,5.0,91,0.00,,,0.11,Wunderground v.1.13,2013-02-07 08:54:00,
2013-02-07 03:56:00,65.0,62.3,30.03,SSE,158,1.0,5.0,91,0.00,,,0.11,Wunderground v.1.13,2013-02-07 08:56:00,
2013-02-07 03:58:00,65.0,62.3,30.03,SSE,158,1.0,5.0,91,0.00,,,0.11,Wunderground v.1.13,2013-02-07 08:58:00,
2013-02-07 04:00:00,65.0,62.3,30.03,SSE,158,1.0,5.0,91,0.00,,,0.11,Wunderground v.1.13,2013-02-07 09:00:00,
2013-02-07 04:02:00,65.0,62.3,30.03,SSE,158,1.0,5.0,91,0.00,,,0.11,Wunderground v.1.13,2013-02-07 09:02:00,
2013-02-07 04:04:00,65.0,62.3,30.03,SSE,158,1.0,5.0,91,0.00,,,0.11,Wunderground v.1.13,2013-02-07 09:04:00,
2013-02-07 04:06:00,65.0,62.3,30.03,SSE,158,1.0,5.0,91,0.00,,,0.11,Wunderground v.1.13,2013-02-07 09:06:00,
2013-02-07 04:08:00,64.9,62.2,30.03,SSE,158,0.0,4.0,91,0.00,,,0.11,Wunderground v.1.13,2013-02-07 09:08:00,
2013-02-07 04:10:00,64.9,62.2,30.03,SSE,158,0.0,4.0,91,0.00,,,0.11,Wunderground v.1.13,2013-02-07 09:10:00,
2013-02-07 04:12:00,64.9,62.2,30.03,SSE,158,0.0,4.0,91,0.00,,,0.11,Wunderground v.1.13,2013-02-07 09:12:00,
2013-02-07 04:14:00,64.9,62.2,30.03,SSE,158,0.0,4.0,91,0.00,,,0.11,Wunderground v.1.13,2013-02-07 09:14:00,
2013-02-07 04:16:00,64.9,62.2,30.03,SSE,158,0.0,4.0,91,0.00,,,0.11,Wunderground v.1.13,2013-02-07 09:16:00,
2013-02-07 04:18:00,64.9,62.2,30.03,SSE,158,0.0,4.0,91,0.00,,,0.11,Wunderground v.1.13,2013-02-07 09:18:00,
2013-02-07 04:20:00,64.9,62.2,30.03,SSE,158,0.0,4.0,91,0.00,,,0.11,Wunderground v.1.13,2013-02-07 09:20:00,
2013-02-07 04:22:00,64.9,62.2,30.03,SSE,158,0.0,4.0,91,0.00,,,0.11,Wunderground v.1.13,2013-02-07 09:22:00,
2013-02-07 04:24:00,64.9,62.5,30.03,N/A,-737280,0.0,0.0,92,0.00,,,0.11,Wunderground v.1.13,2013-02-07 09:24:00,
2013-02-07 04:26:00,64.9,62.5,30.03,N/A,-737280,0.0,0.0,92,0.00,,,0.11,Wunderground v.1.13,2013-02-07 09:26:00,
2013-02-07 04:28:00,64.9,62.5,30.03,N/A,-737280,0.0,0.0,92,0.00,,,0.11,Wunderground v.1.13,2013-02-07 09:28:00,
2013-02-07 04:30:00,64.9,62.5,30.03,N/A,-737280,0.0,0.0,92,0.00,,,0.11,Wunderground v.1.13,2013-02-07 09:30:00,
2013-02-07 04:32:00,64.9,62.5,30.03,N/A,-737280,0.0,0.0,92,0.00,,,0.11,Wunderground v.1.13,2013-02-07 09:32:00,
2013-02-07 04:34:00,64.9,62.5,30.03,N/A,-737280,0.0,0.0,92,0.00,,,0.11,Wunderground v.1.13,2013-02-07 09:34:00,
2013-02-07 04:36:00,64.9,62.5,30.03,N/A,-737280,0.0,0.0,92,0.00,,,0.11,Wunderground v.1.13,2013-02-07 09:36:00,
2013-02-07 04:38:00,64.7,62.3,30.03,N/A,-737280,0.0,0.0,92,0.00,,,0.11,Wunderground v.1.13,2013-02-07 09:38:00,
2013-02-07 04:40:00,64.7,62.3,30.03,N/A,-737280,0.0,0.0,92,0.00,,,0.11,Wunderground v.1.13,2013-02-07 09:40:00,
2013-02-07 04:42:00,64.7,62.3,30.03,N/A,-737280,0.0,0.0,92,0.00,,,0.11,Wunderground v.1.13,2013-02-07 09:42:00,
2013-02-07 04:44:00,64.7,62.3,30.03,N/A,-737280,0.0,0.0,92,0.00,,,0.11,Wunderground v.1.13,2013-02-07 09:44:00,
2013-02-07 04:46:00,64.7,62.3,30.03,N/A,-737280,0.0,0.0,92,0.00,,,0.11,Wunderground v.1.13,2013-02-07 09:46:00,
2013-02-07 04:48:00,64.7,62.3,30.03,N/A,-737280,0.0,0.0,92,0.00,,,0.11,Wunderground v.1.13,2013-02-07 09:48:00,
2013-02-07 04:50:00,64.7,62.3,30.03,N/A,-737280,0.0,0.0,92,0.00,,,0.11,Wunderground v.1.13,2013-02-07 09:50:00,
2013-02-07 04:52:00,64.7,62.3,30.03,N/A,-737280,0.0,0.0,92,0.00,,,0.11,Wunderground v.1.13,2013-02-07 09:52:00,
2013-02-07 04:54:00,64.7,62.3,30.04,N/A,-737280,0.0,0.0,92,0.00,,,0.11,Wunderground v.1.13,2013-02-07 09:54:00,
2013-02-07 04:56:00,64.7,62.3,30.04,N/A,-737280,0.0,0.0,92,0.00,,,0.11,Wunderground v.1.13,2013-02-07 09:56:00,
2013-02-07 04:58:00,64.7,62.3,30.04,N/A,-737280,0.0,0.0,92,0.00,,,0.11,Wunderground v.1.13,2013-02-07 09:58:00,
2013-02-07 05:00:00,64.7,62.3,30.04,N/A,-737280,0.0,0.0,92,0.00,,,0.11,Wunderground v.1.13,2013-02-07 10:00:00,
2013-02-07 05:02:00,64.7,62.3,30.04,N/A,-737280,0.0,0.0,92,0.00,,,0.11,Wunderground v.1.13,2013-02-07 10:02:00,
2013-02-07 05:04:00,64.7,62.3,30.04,N/A,-737280,0.0,0.0,92,0.00,,,0.11,Wunderground v.1.13,2013-02-07 10:04:00,
2013-02-07 05:06:00,64.7,62.3,30.04,N/A,-737280,0.0,0.0,92,0.00,,,0.11,Wunderground v.1.13,2013-02-07 10:06:00,
2013-02-07 05:08:00,64.4,62.0,30.04,N/A,-737280,0.0,0.0,92,0.00,,,0.11,Wunderground v.1.13,2013-02-07 10:08:00,
2013-02-07 05:10:00,64.4,62.0,30.04,N/A,-737280,0.0,0.0,92,0.00,,,0.11,Wunderground v.1.13,2013-02-07 10:10:00,
2013-02-07 05:12:00,64.4,62.0,30.04,N/A,-737280,0.0,0.0,92,0.00,,,0.11,Wunderground v.1.13,2013-02-07 10:12:00,
2013-02-07 05:14:00,64.4,62.0,30.04,N/A,-737280,0.0,0.0,92,0.00,,,0.11,Wunderground v.1.13,2013-02-07 10:14:00,
2013-02-07 05:16:00,64.4,62.0,30.04,N/A,-737280,0.0,0.0,92,0.00,,,0.11,Wunderground v.1.13,2013-02-07 10:16:00,
2013-02-07 05:18:00,64.4,62.0,30.04,N/A,-737280,0.0,0.0,92,0.00,,,0.11,Wunderground v.1.13,2013-02-07 10:18:00,
2013-02-07 05:20:00,64.4,62.0,30.04,N/A,-737280,0.0,0.0,92,0.00,,,0.11,Wunderground v.1.13,2013-02-07 10:20:00,
2013-02-07 05:22:00,64.4,62.0,30.04,N/A,-737280,0.0,0.0,92,0.00,,,0.11,Wunderground v.1.13,2013-02-07 10:22:00,
2013-02-07 05:24:00,63.6,61.2,30.04,N/A,-737280,0.0,0.0,92,0.00,,,0.11,Wunderground v.1.13,2013-02-07 10:24:00,
2013-02-07 05:26:00,63.6,61.2,30.04,N/A,-737280,0.0,0.0,92,0.00,,,0.11,Wunderground v.1.13,2013-02-07 10:26:00,
2013-02-07 05:28:00,63.6,61.2,30.04,N/A,-737280,0.0,0.0,92,0.00,,,0.11,Wunderground v.1.13,2013-02-07 10:28:00,
2013-02-07 05:30:00,63.6,61.2,30.04,N/A,-737280,0.0,0.0,92,0.00,,,0.11,Wunderground v.1.13,2013-02-07 10:30:00,
2013-02-07 05:32:00,63.6,61.2,30.04,N/A,-737280,0.0,0.0,92,0.00,,,0.11,Wunderground v.1.13,2013-02-07 10:32:00,
2013-02-07 05:34:00,63.6,61.2,30.04,N/A,-737280,0.0,0.0,92,0.00,,,0.11,Wunderground v.1.13,2013-02-07 10:34:00,
2013-02-07 05:36:00,63.6,61.2,30.04,N/A,-737280,0.0,0.0,92,0.00,,,0.11,Wunderground v.1.13,2013-02-07 10:36:00,
2013-02-07 05:38:00,63.6,61.5,30.04,N/A,-737280,0.0,0.0,93,0.00,,,0.11,Wunderground v.1.13,2013-02-07 10:38:00,
2013-02-07 05:40:00,63.6,61.5,30.04,N/A,-737280,0.0,0.0,93,0.00,,,0.11,Wunderground v.1.13,2013-02-07 10:40:00,
2013-02-07 05:42:00,63.6,61.5,30.04,N/A,-737280,0.0,0.0,93,0.00,,,0.11,Wunderground v.1.13,2013-02-07 10:42:00,
2013-02-07 05:44:00,63.6,61.5,30.04,N/A,-737280,0.0,0.0,93,0.00,,,0.11,Wunderground v.1.13,2013-02-07 10:44:00,
2013-02-07 05:46:00,63.6,61.5,30.04,N/A,-737280,0.0,0.0,93,0.00,,,0.11,Wunderground v.1.13,2013-02-07 10:46:00,
2013-02-07 05:48:00,63.6,61.5,30.04,N/A,-737280,0.0,0.0,93,0.00,,,0.11,Wunderground v.1.13,2013-02-07 10:48:00,
2013-02-07 05:50:00,63.6,61.5,30.04,N/A,-737280,0.0,0.0,93,0.00,,,0.11,Wunderground v.1.13,2013-02-07 10:50:00,
2013-02-07 05:52:00,63.6,61.5,30.04,N/A,-737280,0.0,0.0,93,0.00,,,0.11,Wunderground v.1.13,2013-02-07 10:52:00,
2013-02-07 05:54:00,63.8,61.7,30.05,N/A,-737280,0.0,0.0,93,0.00,,,0.11,Wunderground v.1.13,2013-02-07 10:54:00,
2013-02-07 05:56:00,63.8,61.7,30.05,N/A,-737280,0.0,0.0,93,0.00,,,0.11,Wunderground v.1.13,2013-02-07 10:56:00,
2013-02-07 05:58:00,63.8,61.7,30.05,N/A,-737280,0.0,0.0,93,0.00,,,0.11,Wunderground v.1.13,2013-02-07 10:58:00,
2013-02-07 06:00:00,63.8,61.7,30.05,N/A,-737280,0.0,0.0,93,0.00,,,0.11,Wunderground v.1.13,2013-02-07 11:00:00,
2013-02-07 06:02:00,63.8,61.7,30.05,N/A,-737280,0.0,0.0,93,0.00,,,0.11,Wunderground v.1.13,2013-02-07 11:02:00,
2013-02-07 06:04:00,63.8,61.7,30.05,N/A,-737280,0.0,0.0,93,0.00,,,0.11,Wunderground v.1.13,2013-02-07 11:04:00,
2013-02-07 06:06:00,63.8,61.7,30.05,N/A,-737280,0.0,0.0,93,0.00,,,0.11,Wunderground v.1.13,2013-02-07 11:06:00,
2013-02-07 06:08:00,64.1,62.0,30.04,N/A,-737280,0.0,0.0,93,0.00,,,0.11,Wunderground v.1.13,2013-02-07 11:08:00,
2013-02-07 06:10:00,64.1,62.0,30.04,N/A,-737280,0.0,0.0,93,0.00,,,0.11,Wunderground v.1.13,2013-02-07 11:10:00,
2013-02-07 06:12:00,64.1,62.0,30.04,N/A,-737280,0.0,0.0,93,0.00,,,0.11,Wunderground v.1.13,2013-02-07 11:12:00,
2013-02-07 06:14:00,64.1,62.0,30.04,N/A,-737280,0.0,0.0,93,0.00,,,0.11,Wunderground v.1.13,2013-02-07 11:14:00,
2013-02-07 06:16:00,64.1,62.0,30.04,N/A,-737280,0.0,0.0,93,0.00,,,0.11,Wunderground v.1.13,2013-02-07 11:16:00,
2013-02-07 06:18:00,64.1,62.0,30.04,N/A,-737280,0.0,0.0,93,0.00,,,0.11,Wunderground v.1.13,2013-02-07 11:18:00,
2013-02-07 06:20:00,64.1,62.0,30.04,N/A,-737280,0.0,0.0,93,0.00,,,0.11,Wunderground v.1.13,2013-02-07 11:20:00,
2013-02-07 06:22:00,64.1,62.0,30.04,N/A,-737280,0.0,0.0,93,0.00,,,0.11,Wunderground v.1.13,2013-02-07 11:22:00,
2013-02-07 06:24:00,64.1,62.0,30.04,N/A,-737280,0.0,0.0,93,0.00,,,0.11,Wunderground v.1.13,2013-02-07 11:24:00,
2013-02-07 06:26:00,64.1,62.0,30.04,N/A,-737280,0.0,0.0,93,0.00,,,0.11,Wunderground v.1.13,2013-02-07 11:26:00,
2013-02-07 06:28:00,64.1,62.0,30.04,N/A,-737280,0.0,0.0,93,0.00,,,0.11,Wunderground v.1.13,2013-02-07 11:28:00,
2013-02-07 06:30:00,64.1,62.0,30.04,N/A,-737280,0.0,0.0,93,0.00,,,0.11,Wunderground v.1.13,2013-02-07 11:30:00,
2013-02-07 06:32:00,64.1,62.0,30.04,N/A,-737280,0.0,0.0,93,0.00,,,0.11,Wunderground v.1.13,2013-02-07 11:32:00,
2013-02-07 06:34:00,64.1,62.0,30.04,N/A,-737280,0.0,0.0,93,0.00,,,0.11,Wunderground v.1.13,2013-02-07 11:34:00,
2013-02-07 06:36:00,64.1,62.0,30.04,N/A,-737280,0.0,0.0,93,0.00,,,0.11,Wunderground v.1.13,2013-02-07 11:36:00,
2013-02-07 06:38:00,64.1,62.3,30.05,SSE,158,0.0,1.0,94,0.00,,,0.11,Wunderground v.1.13,2013-02-07 11:38:00,
2013-02-07 06:40:00,64.1,62.3,30.05,SSE,158,0.0,1.0,94,0.00,,,0.11,Wunderground v.1.13,2013-02-07 11:40:00,
2013-02-07 06:42:00,64.1,62.3,30.05,SSE,158,0.0,1.0,94,0.00,,,0.11,Wunderground v.1.13,2013-02-07 11:42:00,
2013-02-07 06:44:00,64.1,62.3,30.05,SSE,158,0.0,1.0,94,0.00,,,0.11,Wunderground v.1.13,2013-02-07 11:44:00,
2013-02-07 06:46:00,64.1,62.3,30.05,SSE,158,0.0,1.0,94,0.00,,,0.11,Wunderground v.1.13,2013-02-07 11:46:00,
2013-02-07 06:48:00,64.1,62.3,30.05,SSE,158,0.0,1.0,94,0.00,,,0.11,Wunderground v.1.13,2013-02-07 11:48:00,
2013-02-07 06:50:00,64.1,62.3,30.05,SSE,158,0.0,1.0,94,0.00,,,0.11,Wunderground v.1.13,2013-02-07 11:50:00,
2013-02-07 06:52:00,64.1,62.3,30.05,SSE,158,0.0,1.0,94,0.00,,,0.11,Wunderground v.1.13,2013-02-07 11:52:00,
2013-02-07 06:54:00,64.1,62.3,30.05,N/A,-737280,0.0,0.0,94,0.00,,,0.11,Wunderground v.1.13,2013-02-07 11:54:00,
2013-02-07 06:56:00,64.1,62.3,30.05,N/A,-737280,0.0,0.0,94,0.00,,,0.11,Wunderground v.1.13,2013-02-07 11:56:00,
2013-02-07 06:58:00,64.1,62.3,30.05,N/A,-737280,0.0,0.0,94,0.00,,,0.11,Wunderground v.1.13,2013-02-07 11:58:00,
2013-02-07 07:00:00,64.1,62.3,30.05,N/A,-737280,0.0,0.0,94,0.00,,,0.11,Wunderground v.1.13,2013-02-07 12:00:00,
2013-02-07 07:02:00,64.1,62.3,30.05,N/A,-737280,0.0,0.0,94,0.00,,,0.11,Wunderground v.1.13,2013-02-07 12:02:00,
2013-02-07 07:04:00,64.1,62.3,30.05,N/A,-737280,0.0,0.0,94,0.00,,,0.11,Wunderground v.1.13,2013-02-07 12:04:00,
2013-02-07 07:06:00,64.1,62.3,30.05,N/A,-737280,0.0,0.0,94,0.00,,,0.11,Wunderground v.1.13,2013-02-07 12:06:00,
2013-02-07 07:08:00,64.1,62.3,30.04,SSE,158,0.0,3.0,94,0.00,,,0.11,Wunderground v.1.13,2013-02-07 12:08:00,
2013-02-07 07:10:00,64.1,62.3,30.04,SSE,158,0.0,3.0,94,0.00,,,0.11,Wunderground v.1.13,2013-02-07 12:10:00,
2013-02-07 07:12:00,64.1,62.3,30.04,SSE,158,0.0,3.0,94,0.00,,,0.11,Wunderground v.1.13,2013-02-07 12:12:00,
2013-02-07 07:14:00,64.1,62.3,30.04,SSE,158,0.0,3.0,94,0.00,,,0.11,Wunderground v.1.13,2013-02-07 12:14:00,
2013-02-07 07:16:00,64.1,62.3,30.04,SSE,158,0.0,3.0,94,0.00,,,0.11,Wunderground v.1.13,2013-02-07 12:16:00,
2013-02-07 07:18:00,64.1,62.3,30.04,SSE,158,0.0,3.0,94,0.00,,,0.11,Wunderground v.1.13,2013-02-07 12:18:00,
2013-02-07 07:20:00,64.1,62.3,30.04,SSE,158,0.0,3.0,94,0.00,,,0.11,Wunderground v.1.13,2013-02-07 12:20:00,
2013-02-07 07:22:00,64.1,62.3,30.04,SSE,158,0.0,3.0,94,0.00,,,0.11,Wunderground v.1.13,2013-02-07 12:22:00,
2013-02-07 07:24:00,64.1,62.3,30.05,SSE,158,0.0,2.0,94,0.00,,,0.11,Wunderground v.1.13,2013-02-07 12:24:00,
2013-02-07 07:26:00,64.1,62.3,30.05,SSE,158,0.0,2.0,94,0.00,,,0.11,Wunderground v.1.13,2013-02-07 12:26:00,
2013-02-07 07:28:00,64.1,62.3,30.05,SSE,158,0.0,2.0,94,0.00,,,0.11,Wunderground v.1.13,2013-02-07 12:28:00,
2013-02-07 07:30:00,64.1,62.3,30.05,SSE,158,0.0,2.0,94,0.00,,,0.11,Wunderground v.1.13,2013-02-07 12:30:00,
2013-02-07 07:32:00,64.1,62.3,30.05,SSE,158,0.0,2.0,94,0.00,,,0.11,Wunderground v.1.13,2013-02-07 12:32:00,
2013-02-07 07:34:00,64.1,62.3,30.05,SSE,158,0.0,2.0,94,0.00,,,0.11,Wunderground v.1.13,2013-02-07 12:34:00,
2013-02-07 07:36:00,64.1,62.3,30.05,SSE,158,0.0,2.0,94,0.00,,,0.11,Wunderground v.1.13,2013-02-07 12:36:00,
2013-02-07 07:38:00,64.4,62.3,30.05,SSE,158,0.0,5.0,93,0.00,,,0.11,Wunderground v.1.13,2013-02-07 12:38:00,
2013-02-07 07:40:00,64.4,62.3,30.05,SSE,158,0.0,5.0,93,0.00,,,0.11,Wunderground v.1.13,2013-02-07 12:40:00,
2013-02-07 07:42:00,64.4,62.3,30.05,SSE,158,0.0,5.0,93,0.00,,,0.11,Wunderground v.1.13,2013-02-07 12:42:00,
2013-02-07 07:44:00,64.4,62.3,30.05,SSE,158,0.0,5.0,93,0.00,,,0.11,Wunderground v.1.13,2013-02-07 12:44:00,
2013-02-07 07:46:00,64.4,62.3,30.05,SSE,158,0.0,5.0,93,0.00,,,0.11,Wunderground v.1.13,2013-02-07 12:46:00,
2013-02-07 07:48:00,64.4,62.3,30.05,SSE,158,0.0,5.0,93,0.00,,,0.11,Wunderground v.1.13,2013-02-07 12:48:00,
2013-02-07 07:50:00,64.4,62.3,30.05,SSE,158,0.0,5.0,93,0.00,,,0.11,Wunderground v.1.13,2013-02-07 12:50:00,
2013-02-07 07:52:00,64.4,62.3,30.05,SSE,158,0.0,5.0,93,0.00,,,0.11,Wunderground v.1.13,2013-02-07 12:52:00,
2013-02-07 07:54:00,64.6,62.5,30.05,SSE,158,1.0,4.0,93,0.00,,,0.11,Wunderground v.1.13,2013-02-07 12:54:00,
2013-02-07 07:56:00,64.6,62.5,30.05,SSE,158,1.0,4.0,93,0.00,,,0.11,Wunderground v.1.13,2013-02-07 12:56:00,
2013-02-07 07:58:00,64.6,62.5,30.05,SSE,158,1.0,4.0,93,0.00,,,0.11,Wunderground v.1.13,2013-02-07 12:58:00,
2013-02-07 08:00:00,64.6,62.5,30.05,SSE,158,1.0,4.0,93,0.00,,,0.11,Wunderground v.1.13,2013-02-07 13:00:00,
2013-02-07 08:02:00,64.6,62.5,30.05,SSE,158,1.0,4.0,93,0.00,,,0.11,Wunderground v.1.13,2013-02-07 13:02:00,
2013-02-07 08:04:00,64.6,62.5,30.05,SSE,158,1.0,4.0,93,0.00,,,0.11,Wunderground v.1.13,2013-02-07 13:04:00,
2013-02-07 08:06:00,64.6,62.5,30.05,SSE,158,1.0,4.0,93,0.00,,,0.11,Wunderground v.1.13,2013-02-07 13:06:00,
2013-02-07 08:08:00,64.9,62.5,30.05,ESE,113,2.0,10.0,92,0.00,,,0.11,Wunderground v.1.13,2013-02-07 13:08:00,
2013-02-07 08:10:00,64.9,62.5,30.05,ESE,113,2.0,10.0,92,0.00,,,0.11,Wunderground v.1.13,2013-02-07 13:10:00,
2013-02-07 08:12:00,64.9,62.5,30.05,ESE,113,2.0,10.0,92,0.00,,,0.11,Wunderground v.1.13,2013-02-07 13:12:00,
2013-02-07 08:14:00,64.9,62.5,30.05,ESE,113,2.0,10.0,92,0.00,,,0.11,Wunderground v.1.13,2013-02-07 13:14:00,
2013-02-07 08:16:00,64.9,62.5,30.05,ESE,113,2.0,10.0,92,0.00,,,0.11,Wunderground v.1.13,2013-02-07 13:16:00,
2013-02-07 08:18:00,64.9,62.5,30.05,ESE,113,2.0,10.0,92,0.00,,,0.11,Wunderground v.1.13,2013-02-07 13:18:00,
2013-02-07 08:20:00,64.9,62.5,30.05,ESE,113,2.0,10.0,92,0.00,,,0.11,Wunderground v.1.13,2013-02-07 13:20:00,
2013-02-07 08:22:00,64.9,62.5,30.05,ESE,113,2.0,10.0,92,0.00,,,0.11,Wunderground v.1.13,2013-02-07 13:22:00,
2013-02-07 08:24:00,65.3,62.9,30.04,SE,135,1.0,6.0,92,0.00,,,0.11,Wunderground v.1.13,2013-02-07 13:24:00,
2013-02-07 08:26:00,65.3,62.9,30.04,SE,135,1.0,6.0,92,0.00,,,0.11,Wunderground v.1.13,2013-02-07 13:26:00,
2013-02-07 08:28:00,65.3,62.9,30.04,SE,135,1.0,6.0,92,0.00,,,0.11,Wunderground v.1.13,2013-02-07 13:28:00,
2013-02-07 08:30:00,65.3,62.9,30.04,SE,135,1.0,6.0,92,0.00,,,0.11,Wunderground v.1.13,2013-02-07 13:30:00,
2013-02-07 08:32:00,65.3,62.9,30.04,SE,135,1.0,6.0,92,0.00,,,0.11,Wunderground v.1.13,2013-02-07 13:32:00,
2013-02-07 08:34:00,65.3,62.9,30.04,SE,135,1.0,6.0,92,0.00,,,0.11,Wunderground v.1.13,2013-02-07 13:34:00,
2013-02-07 08:36:00,65.3,62.9,30.04,SE,135,1.0,6.0,92,0.00,,,0.11,Wunderground v.1.13,2013-02-07 13:36:00,
2013-02-07 08:38:00,65.8,63.1,30.05,SSE,158,2.0,7.0,91,0.00,,,0.11,Wunderground v.1.13,2013-02-07 13:38:00,
2013-02-07 08:40:00,65.8,63.1,30.05,SSE,158,2.0,7.0,91,0.00,,,0.11,Wunderground v.1.13,2013-02-07 13:40:00,
2013-02-07 08:42:00,65.8,63.1,30.05,SSE,158,2.0,7.0,91,0.00,,,0.11,Wunderground v.1.13,2013-02-07 13:42:00,
2013-02-07 08:44:00,65.8,63.1,30.05,SSE,158,2.0,7.0,91,0.00,,,0.11,Wunderground v.1.13,2013-02-07 13:44:00,
2013-02-07 08:46:00,65.8,63.1,30.05,SSE,158,2.0,7.0,91,0.00,,,0.11,Wunderground v.1.13,2013-02-07 13:46:00,
2013-02-07 08:48:00,65.8,63.1,30.05,SSE,158,2.0,7.0,91,0.00,,,0.11,Wunderground v.1.13,2013-02-07 13:48:00,
2013-02-07 08:50:00,65.8,63.1,30.05,SSE,158,2.0,7.0,91,0.00,,,0.11,Wunderground v.1.13,2013-02-07 13:50:00,
2013-02-07 08:52:00,65.8,63.1,30.05,SSE,158,2.0,7.0,91,0.00,,,0.11,Wunderground v.1.13,2013-02-07 13:52:00,
2013-02-07 08:54:00,66.9,63.9,30.05,SE,135,3.0,10.0,90,0.00,,,0.11,Wunderground v.1.13,2013-02-07 13:54:00,
2013-02-07 08:56:00,66.9,63.9,30.05,SE,135,3.0,10.0,90,0.00,,,0.11,Wunderground v.1.13,2013-02-07 13:56:00,
2013-02-07 08:58:00,66.9,63.9,30.05,SE,135,3.0,10.0,90,0.00,,,0.11,Wunderground v.1.13,2013-02-07 13:58:00,
2013-02-07 09:00:00,66.9,63.9,30.05,SE,135,3.0,10.0,90,0.00,,,0.11,Wunderground v.1.13,2013-02-07 14:00:00,
2013-02-07 09:02:00,66.9,63.9,30.05,SE,135,3.0,10.0,90,0.00,,,0.11,Wunderground v.1.13,2013-02-07 14:02:00,
2013-02-07 09:04:00,66.9,63.9,30.05,SE,135,3.0,10.0,90,0.00,,,0.11,Wunderground v.1.13,2013-02-07 14:04:00,
2013-02-07 09:06:00,66.9,63.9,30.05,SE,135,3.0,10.0,90,0.00,,,0.11,Wunderground v.1.13,2013-02-07 14:06:00,
2013-02-07 09:08:00,67.3,63.6,30.05,SSE,158,3.0,11.0,88,0.00,,,0.11,Wunderground v.1.13,2013-02-07 14:08:00,
2013-02-07 09:10:00,67.3,63.6,30.05,SSE,158,3.0,11.0,88,0.00,,,0.11,Wunderground v.1.13,2013-02-07 14:10:00,
2013-02-07 09:12:00,67.3,63.6,30.05,SSE,158,3.0,11.0,88,0.00,,,0.11,Wunderground v.1.13,2013-02-07 14:12:00,
2013-02-07 09:14:00,67.3,63.6,30.05,SSE,158,3.0,11.0,88,0.00,,,0.11,Wunderground v.1.13,2013-02-07 14:14:00,
2013-02-07 09:16:00,67.3,63.6,30.05,SSE,158,3.0,11.0,88,0.00,,,0.11,Wunderground v.1.13,2013-02-07 14:16:00,
2013-02-07 09:18:00,67.3,63.6,30.05,SSE,158,3.0,11.0,88,0.00,,,0.11,Wunderground v.1.13,2013-02-07 14:18:00,
2013-02-07 09:20:00,67.3,63.6,30.05,SSE,158,3.0,11.0,88,0.00,,,0.11,Wunderground v.1.13,2013-02-07 14:20:00,
2013-02-07 09:22:00,67.3,63.6,30.05,SSE,158,3.0,11.0,88,0.00,,,0.11,Wunderground v.1.13,2013-02-07 14:22:00,
2013-02-07 09:24:00,68.9,64.9,30.06,SSE,158,2.0,9.0,87,0.00,,,0.11,Wunderground v.1.13,2013-02-07 14:24:00,
2013-02-07 09:26:00,68.9,64.9,30.06,SSE,158,2.0,9.0,87,0.00,,,0.11,Wunderground v.1.13,2013-02-07 14:26:00,
2013-02-07 09:28:00,68.9,64.9,30.06,SSE,158,2.0,9.0,87,0.00,,,0.11,Wunderground v.1.13,2013-02-07 14:28:00,
2013-02-07 09:30:00,68.9,64.9,30.06,SSE,158,2.0,9.0,87,0.00,,,0.11,Wunderground v.1.13,2013-02-07 14:30:00,
2013-02-07 09:32:00,68.9,64.9,30.06,SSE,158,2.0,9.0,87,0.00,,,0.11,Wunderground v.1.13,2013-02-07 14:32:00,
2013-02-07 09:34:00,68.9,64.9,30.06,SSE,158,2.0,9.0,87,0.00,,,0.11,Wunderground v.1.13,2013-02-07 14:34:00,
2013-02-07 09:36:00,68.9,64.9,30.06,SSE,158,2.0,9.0,87,0.00,,,0.11,Wunderground v.1.13,2013-02-07 14:36:00,
2013-02-07 09:38:00,70.5,65.1,30.06,SSE,158,3.0,11.0,83,0.00,,,0.11,Wunderground v.1.13,2013-02-07 14:38:00,
2013-02-07 09:40:00,70.5,65.1,30.06,SSE,158,3.0,11.0,83,0.00,,,0.11,Wunderground v.1.13,2013-02-07 14:40:00,
2013-02-07 09:42:00,70.5,65.1,30.06,SSE,158,3.0,11.0,83,0.00,,,0.11,Wunderground v.1.13,2013-02-07 14:42:00,
2013-02-07 09:44:00,70.5,65.1,30.06,SSE,158,3.0,11.0,83,0.00,,,0.11,Wunderground v.1.13,2013-02-07 14:44:00,
2013-02-07 09:46:00,70.5,65.1,30.06,SSE,158,3.0,11.0,83,0.00,,,0.11,Wunderground v.1.13,2013-02-07 14:46:00,
2013-02-07 09:48:00,70.5,65.1,30.06,SSE,158,3.0,11.0,83,0.00,,,0.11,Wunderground v.1.13,2013-02-07 14:48:00,
2013-02-07 09:50:00,70.5,65.1,30.06,SSE,158,3.0,11.0,83,0.00,,,0.11,Wunderground v.1.13,2013-02-07 14:50:00,
2013-02-07 09:52:00,70.5,65.1,30.06,SSE,158,3.0,11.0,83,0.00,,,0.11,Wunderground v.1.13,2013-02-07 14:52:00,
2013-02-07 09:54:00,71.5,65.0,30.04,SSE,158,6.0,14.0,80,0.00,,,0.11,Wunderground v.1.13,2013-02-07 14:54:00,
2013-02-07 09:56:00,71.5,65.0,30.04,SSE,158,6.0,14.0,80,0.00,,,0.11,Wunderground v.1.13,2013-02-07 14:56:00,
2013-02-07 09:58:00,71.5,65.0,30.04,SSE,158,6.0,14.0,80,0.00,,,0.11,Wunderground v.1.13,2013-02-07 14:58:00,
2013-02-07 10:00:00,71.5,65.0,30.04,SSE,158,6.0,14.0,80,0.00,,,0.11,Wunderground v.1.13,2013-02-07 15:00:00,
2013-02-07 10:02:00,71.5,65.0,30.04,SSE,158,6.0,14.0,80,0.00,,,0.11,Wunderground v.1.13,2013-02-07 15:02:00,
2013-02-07 10:04:00,71.5,65.0,30.04,SSE,158,6.0,14.0,80,0.00,,,0.11,Wunderground v.1.13,2013-02-07 15:04:00,
2013-02-07 10:06:00,71.5,65.0,30.04,SSE,158,6.0,14.0,80,0.00,,,0.11,Wunderground v.1.13,2013-02-07 15:06:00,
2013-02-07 10:08:00,71.9,65.0,30.05,SSE,158,6.0,14.0,79,0.00,,,0.11,Wunderground v.1.13,2013-02-07 15:08:00,
2013-02-07 10:10:00,71.9,65.0,30.05,SSE,158,6.0,14.0,79,0.00,,,0.11,Wunderground v.1.13,2013-02-07 15:10:00,
2013-02-07 10:12:00,71.9,65.0,30.05,SSE,158,6.0,14.0,79,0.00,,,0.11,Wunderground v.1.13,2013-02-07 15:12:00,
2013-02-07 10:14:00,71.9,65.0,30.05,SSE,158,6.0,14.0,79,0.00,,,0.11,Wunderground v.1.13,2013-02-07 15:14:00,
2013-02-07 10:16:00,71.9,65.0,30.05,SSE,158,6.0,14.0,79,0.00,,,0.11,Wunderground v.1.13,2013-02-07 15:16:00,
2013-02-07 10:18:00,71.9,65.0,30.05,SSE,158,6.0,14.0,79,0.00,,,0.11,Wunderground v.1.13,2013-02-07 15:18:00,
2013-02-07 10:20:00,71.9,65.0,30.05,SSE,158,6.0,14.0,79,0.00,,,0.11,Wunderground v.1.13,2013-02-07 15:20:00,
2013-02-07 10:22:00,71.9,65.0,30.05,SSE,158,6.0,14.0,79,0.00,,,0.11,Wunderground v.1.13,2013-02-07 15:22:00,
2013-02-07 10:24:00,72.8,65.2,30.04,SSE,158,7.0,15.0,77,0.00,,,0.11,Wunderground v.1.13,2013-02-07 15:24:00,
2013-02-07 10:26:00,72.8,65.2,30.04,SSE,158,7.0,15.0,77,0.00,,,0.11,Wunderground v.1.13,2013-02-07 15:26:00,
2013-02-07 10:28:00,72.8,65.2,30.04,SSE,158,7.0,15.0,77,0.00,,,0.11,Wunderground v.1.13,2013-02-07 15:28:00,
2013-02-07 10:30:00,72.8,65.2,30.04,SSE,158,7.0,15.0,77,0.00,,,0.11,Wunderground v.1.13,2013-02-07 15:30:00,
2013-02-07 10:32:00,72.8,65.2,30.04,SSE,158,7.0,15.0,77,0.00,,,0.11,Wunderground v.1.13,2013-02-07 15:32:00,
2013-02-07 10:34:00,72.8,65.2,30.04,SSE,158,7.0,15.0,77,0.00,,,0.11,Wunderground v.1.13,2013-02-07 15:34:00,
2013-02-07 10:36:00,72.8,65.2,30.04,SSE,158,7.0,15.0,77,0.00,,,0.11,Wunderground v.1.13,2013-02-07 15:36:00,
2013-02-07 10:38:00,74.3,65.5,30.03,SSE,158,7.0,16.0,74,0.00,,,0.11,Wunderground v.1.13,2013-02-07 15:38:00,
2013-02-07 10:40:00,74.3,65.5,30.03,SSE,158,7.0,16.0,74,0.00,,,0.11,Wunderground v.1.13,2013-02-07 15:40:00,
2013-02-07 10:42:00,74.3,65.5,30.03,SSE,158,7.0,16.0,74,0.00,,,0.11,Wunderground v.1.13,2013-02-07 15:42:00,
2013-02-07 10:44:00,74.3,65.5,30.03,SSE,158,7.0,16.0,74,0.00,,,0.11,Wunderground v.1.13,2013-02-07 15:44:00,
2013-02-07 10:46:00,74.3,65.5,30.03,SSE,158,7.0,16.0,74,0.00,,,0.11,Wunderground v.1.13,2013-02-07 15:46:00,
2013-02-07 10:48:00,74.3,65.5,30.03,SSE,158,7.0,16.0,74,0.00,,,0.11,Wunderground v.1.13,2013-02-07 15:48:00,
2013-02-07 10:50:00,74.3,65.5,30.03,SSE,158,7.0,16.0,74,0.00,,,0.11,Wunderground v.1.13,2013-02-07 15:50:00,
2013-02-07 10:52:00,74.3,65.5,30.03,SSE,158,7.0,16.0,74,0.00,,,0.11,Wunderground v.1.13,2013-02-07 15:52:00,
2013-02-07 10:54:00,74.6,65.0,30.02,SSE,158,9.0,20.0,72,0.00,,,0.11,Wunderground v.1.13,2013-02-07 15:54:00,
2013-02-07 10:56:00,74.6,65.0,30.02,SSE,158,9.0,20.0,72,0.00,,,0.11,Wunderground v.1.13,2013-02-07 15:56:00,
2013-02-07 10:58:00,74.6,65.0,30.02,SSE,158,9.0,20.0,72,0.00,,,0.11,Wunderground v.1.13,2013-02-07 15:58:00,
2013-02-07 11:00:00,74.6,65.0,30.02,SSE,158,9.0,20.0,72,0.00,,,0.11,Wunderground v.1.13,2013-02-07 16:00:00,
2013-02-07 11:02:00,74.6,65.0,30.02,SSE,158,9.0,20.0,72,0.00,,,0.11,Wunderground v.1.13,2013-02-07 16:02:00,
2013-02-07 11:04:00,74.6,65.0,30.02,SSE,158,9.0,20.0,72,0.00,,,0.11,Wunderground v.1.13,2013-02-07 16:04:00,
2013-02-07 11:06:00,74.6,65.0,30.02,SSE,158,9.0,20.0,72,0.00,,,0.11,Wunderground v.1.13,2013-02-07 16:06:00,
2013-02-07 11:08:00,75.2,64.7,30.02,SSE,158,6.0,17.0,70,0.00,,,0.11,Wunderground v.1.13,2013-02-07 16:08:00,
2013-02-07 11:10:00,75.2,64.7,30.02,SSE,158,6.0,17.0,70,0.00,,,0.11,Wunderground v.1.13,2013-02-07 16:10:00,
2013-02-07 11:12:00,75.2,64.7,30.02,SSE,158,6.0,17.0,70,0.00,,,0.11,Wunderground v.1.13,2013-02-07 16:12:00,
2013-02-07 11:14:00,75.2,64.7,30.02,SSE,158,6.0,17.0,70,0.00,,,0.11,Wunderground v.1.13,2013-02-07 16:14:00,
2013-02-07 11:16:00,75.2,64.7,30.02,SSE,158,6.0,17.0,70,0.00,,,0.11,Wunderground v.1.13,2013-02-07 16:16:00,
2013-02-07 11:18:00,75.2,64.7,30.02,SSE,158,6.0,17.0,70,0.00,,,0.11,Wunderground v.1.13,2013-02-07 16:18:00,
2013-02-07 11:20:00,75.2,64.7,30.02,SSE,158,6.0,17.0,70,0.00,,,0.11,Wunderground v.1.13,2013-02-07 16:20:00,
2013-02-07 11:22:00,75.2,64.7,30.02,SSE,158,6.0,17.0,70,0.00,,,0.11,Wunderground v.1.13,2013-02-07 16:22:00,
2013-02-07 11:24:00,76.1,63.9,30.01,SSE,158,7.0,17.0,66,0.00,,,0.11,Wunderground v.1.13,2013-02-07 16:24:00,
2013-02-07 11:26:00,76.1,63.9,30.01,SSE,158,7.0,17.0,66,0.00,,,0.11,Wunderground v.1.13,2013-02-07 16:26:00,
2013-02-07 11:28:00,76.1,63.9,30.01,SSE,158,7.0,17.0,66,0.00,,,0.11,Wunderground v.1.13,2013-02-07 16:28:00,
2013-02-07 11:30:00,76.1,63.9,30.01,SSE,158,7.0,17.0,66,0.00,,,0.11,Wunderground v.1.13,2013-02-07 16:30:00,
2013-02-07 11:32:00,76.1,63.9,30.01,SSE,158,7.0,17.0,66,0.00,,,0.11,Wunderground v.1.13,2013-02-07 16:32:00,
2013-02-07 11:34:00,76.1,63.9,30.01,SSE,158,7.0,17.0,66,0.00,,,0.11,Wunderground v.1.13,2013-02-07 16:34:00,
2013-02-07 11:36:00,76.1,63.9,30.01,SSE,158,7.0,17.0,66,0.00,,,0.11,Wunderground v.1.13,2013-02-07 16:36:00,
2013-02-07 11:38:00,77.5,63.9,30.00,SSE,158,6.0,17.0,63,0.00,,,0.11,Wunderground v.1.13,2013-02-07 16:38:00,
2013-02-07 11:40:00,77.5,63.9,30.00,SSE,158,6.0,17.0,63,0.00,,,0.11,Wunderground v.1.13,2013-02-07 16:40:00,
2013-02-07 11:42:00,77.5,63.9,30.00,SSE,158,6.0,17.0,63,0.00,,,0.11,Wunderground v.1.13,2013-02-07 16:42:00,
2013-02-07 11:44:00,77.5,63.9,30.00,SSE,158,6.0,17.0,63,0.00,,,0.11,Wunderground v.1.13,2013-02-07 16:44:00,
2013-02-07 11:46:00,77.5,63.9,30.00,SSE,158,6.0,17.0,63,0.00,,,0.11,Wunderground v.1.13,2013-02-07 16:46:00,
2013-02-07 11:48:00,77.5,63.9,30.00,SSE,158,6.0,17.0,63,0.00,,,0.11,Wunderground v.1.13,2013-02-07 16:48:00,
2013-02-07 11:50:00,77.5,63.9,30.00,SSE,158,6.0,17.0,63,0.00,,,0.11,Wunderground v.1.13,2013-02-07 16:50:00,
2013-02-07 11:52:00,77.5,63.9,30.00,SSE,158,6.0,17.0,63,0.00,,,0.11,Wunderground v.1.13,2013-02-07 16:52:00,
2013-02-07 11:54:00,77.4,63.4,30.00,SSW,203,8.0,23.0,62,0.00,,,0.11,Wunderground v.1.13,2013-02-07 16:54:00,
2013-02-07 11:56:00,77.4,63.4,30.00,SSW,203,8.0,23.0,62,0.00,,,0.11,Wunderground v.1.13,2013-02-07 16:56:00,
2013-02-07 11:58:00,77.4,63.4,30.00,SSW,203,8.0,23.0,62,0.00,,,0.11,Wunderground v.1.13,2013-02-07 16:58:00,
2013-02-07 12:02:00,77.4,63.4,30.00,SSW,203,8.0,23.0,62,0.00,,,0.11,Wunderground v.1.13,2013-02-07 17:02:00,
2013-02-07 12:04:00,77.4,63.4,30.00,SSW,203,8.0,23.0,62,0.00,,,0.11,Wunderground v.1.13,2013-02-07 17:04:00,
2013-02-07 12:06:00,77.4,63.4,30.00,SSW,203,8.0,23.0,62,0.00,,,0.11,Wunderground v.1.13,2013-02-07 17:06:00,
2013-02-07 12:08:00,77.0,62.5,29.99,South,180,8.0,18.0,61,0.00,,,0.11,Wunderground v.1.13,2013-02-07 17:08:00,
2013-02-07 12:10:00,77.0,62.5,29.99,South,180,8.0,18.0,61,0.00,,,0.11,Wunderground v.1.13,2013-02-07 17:10:00,
2013-02-07 12:12:00,77.0,62.5,29.99,South,180,8.0,18.0,61,0.00,,,0.11,Wunderground v.1.13,2013-02-07 17:12:00,
2013-02-07 12:14:00,77.0,62.5,29.99,South,180,8.0,18.0,61,0.00,,,0.11,Wunderground v.1.13,2013-02-07 17:14:00,
2013-02-07 12:16:00,77.0,62.5,29.99,South,180,8.0,18.0,61,0.00,,,0.11,Wunderground v.1.13,2013-02-07 17:16:00,
2013-02-07 12:18:00,77.0,62.5,29.99,South,180,8.0,18.0,61,0.00,,,0.11,Wunderground v.1.13,2013-02-07 17:18:00,
2013-02-07 12:20:00,77.0,62.5,29.99,South,180,8.0,18.0,61,0.00,,,0.11,Wunderground v.1.13,2013-02-07 17:20:00,
2013-02-07 12:22:00,77.0,62.5,29.99,South,180,8.0,18.0,61,0.00,,,0.11,Wunderground v.1.13,2013-02-07 17:22:00,
2013-02-07 12:24:00,78.2,60.7,29.99,South,180,7.0,16.0,55,0.00,,,0.11,Wunderground v.1.13,2013-02-07 17:24:00,
2013-02-07 12:26:00,78.2,60.7,29.99,South,180,7.0,16.0,55,0.00,,,0.11,Wunderground v.1.13,2013-02-07 17:26:00,
2013-02-07 12:28:00,78.2,60.7,29.99,South,180,7.0,16.0,55,0.00,,,0.11,Wunderground v.1.13,2013-02-07 17:28:00,
2013-02-07 12:30:00,78.2,60.7,29.99,South,180,7.0,16.0,55,0.00,,,0.11,Wunderground v.1.13,2013-02-07 17:30:00,
2013-02-07 12:32:00,78.2,60.7,29.99,South,180,7.0,16.0,55,0.00,,,0.11,Wunderground v.1.13,2013-02-07 17:32:00,
2013-02-07 12:34:00,78.2,60.7,29.99,South,180,7.0,16.0,55,0.00,,,0.11,Wunderground v.1.13,2013-02-07 17:34:00,
2013-02-07 12:36:00,78.2,60.7,29.99,South,180,7.0,16.0,55,0.00,,,0.11,Wunderground v.1.13,2013-02-07 17:36:00,
2013-02-07 12:38:00,79.3,61.2,29.98,South,180,8.0,21.0,54,0.00,,,0.11,Wunderground v.1.13,2013-02-07 17:38:00,
2013-02-07 12:40:00,79.3,61.2,29.98,South,180,8.0,21.0,54,0.00,,,0.11,Wunderground v.1.13,2013-02-07 17:40:00,
2013-02-07 12:42:00,79.3,61.2,29.98,South,180,8.0,21.0,54,0.00,,,0.11,Wunderground v.1.13,2013-02-07 17:42:00,
2013-02-07 12:44:00,79.3,61.2,29.98,South,180,8.0,21.0,54,0.00,,,0.11,Wunderground v.1.13,2013-02-07 17:44:00,
2013-02-07 12:46:00,79.3,61.2,29.98,South,180,8.0,21.0,54,0.00,,,0.11,Wunderground v.1.13,2013-02-07 17:46:00,
2013-02-07 12:48:00,79.3,61.2,29.98,South,180,8.0,21.0,54,0.00,,,0.11,Wunderground v.1.13,2013-02-07 17:48:00,
2013-02-07 12:50:00,79.3,61.2,29.98,South,180,8.0,21.0,54,0.00,,,0.11,Wunderground v.1.13,2013-02-07 17:50:00,
2013-02-07 12:52:00,79.3,61.2,29.98,South,180,8.0,21.0,54,0.00,,,0.11,Wunderground v.1.13,2013-02-07 17:52:00,
2013-02-07 12:54:00,78.7,62.7,29.98,SSW,203,10.0,21.0,58,0.00,,,0.11,Wunderground v.1.13,2013-02-07 17:54:00,
2013-02-07 12:56:00,78.7,62.7,29.98,SSW,203,10.0,21.0,58,0.00,,,0.11,Wunderground v.1.13,2013-02-07 17:56:00,
2013-02-07 12:58:00,78.7,62.7,29.98,SSW,203,10.0,21.0,58,0.00,,,0.11,Wunderground v.1.13,2013-02-07 17:58:00,
2013-02-07 13:00:00,78.7,62.7,29.98,SSW,203,10.0,21.0,58,0.00,,,0.11,Wunderground v.1.13,2013-02-07 18:00:00,
2013-02-07 13:02:00,78.7,62.7,29.98,SSW,203,10.0,21.0,58,0.00,,,0.11,Wunderground v.1.13,2013-02-07 18:02:00,
2013-02-07 13:04:00,78.7,62.7,29.98,SSW,203,10.0,21.0,58,0.00,,,0.11,Wunderground v.1.13,2013-02-07 18:04:00,
2013-02-07 13:06:00,78.7,62.7,29.98,SSW,203,10.0,21.0,58,0.00,,,0.11,Wunderground v.1.13,2013-02-07 18:06:00,
2013-02-07 13:08:00,78.0,63.9,29.97,SSW,203,9.0,22.0,62,0.00,,,0.11,Wunderground v.1.13,2013-02-07 18:08:00,
2013-02-07 13:10:00,78.0,63.9,29.97,SSW,203,9.0,22.0,62,0.00,,,0.11,Wunderground v.1.13,2013-02-07 18:10:00,
2013-02-07 13:12:00,78.0,63.9,29.97,SSW,203,9.0,22.0,62,0.00,,,0.11,Wunderground v.1.13,2013-02-07 18:12:00,
2013-02-07 13:14:00,78.0,63.9,29.97,SSW,203,9.0,22.0,62,0.00,,,0.11,Wunderground v.1.13,2013-02-07 18:14:00,
2013-02-07 13:16:00,78.0,63.9,29.97,SSW,203,9.0,22.0,62,0.00,,,0.11,Wunderground v.1.13,2013-02-07 18:16:00,
2013-02-07 13:18:00,78.0,63.9,29.97,SSW,203,9.0,22.0,62,0.00,,,0.11,Wunderground v.1.13,2013-02-07 18:18:00,
2013-02-07 13:20:00,78.0,63.9,29.97,SSW,203,9.0,22.0,62,0.00,,,0.11,Wunderground v.1.13,2013-02-07 18:20:00,
2013-02-07 13:22:00,78.0,63.9,29.97,SSW,203,9.0,22.0,62,0.00,,,0.11,Wunderground v.1.13,2013-02-07 18:22:00,
2013-02-07 13:24:00,79.0,64.9,29.96,SSW,203,8.0,21.0,62,0.00,,,0.11,Wunderground v.1.13,2013-02-07 18:24:00,
2013-02-07 13:26:00,79.0,64.9,29.96,SSW,203,8.0,21.0,62,0.00,,,0.11,Wunderground v.1.13,2013-02-07 18:26:00,
2013-02-07 13:28:00,79.0,64.9,29.96,SSW,203,8.0,21.0,62,0.00,,,0.11,Wunderground v.1.13,2013-02-07 18:28:00,
2013-02-07 13:30:00,79.0,64.9,29.96,SSW,203,8.0,21.0,62,0.00,,,0.11,Wunderground v.1.13,2013-02-07 18:30:00,
2013-02-07 13:32:00,79.0,64.9,29.96,SSW,203,8.0,21.0,62,0.00,,,0.11,Wunderground v.1.13,2013-02-07 18:32:00,
2013-02-07 13:34:00,79.0,64.9,29.96,SSW,203,8.0,21.0,62,0.00,,,0.11,Wunderground v.1.13,2013-02-07 18:34:00,
2013-02-07 13:36:00,79.0,64.9,29.96,SSW,203,8.0,21.0,62,0.00,,,0.11,Wunderground v.1.13,2013-02-07 18:36:00,
2013-02-07 13:38:00,78.0,65.3,29.95,SSW,203,11.0,22.0,65,0.00,,,0.11,Wunderground v.1.13,2013-02-07 18:38:00,
2013-02-07 13:40:00,78.0,65.3,29.95,SSW,203,11.0,22.0,65,0.00,,,0.11,Wunderground v.1.13,2013-02-07 18:40:00,
2013-02-07 13:42:00,78.0,65.3,29.95,SSW,203,11.0,22.0,65,0.00,,,0.11,Wunderground v.1.13,2013-02-07 18:42:00,
2013-02-07 13:44:00,78.0,65.3,29.95,SSW,203,11.0,22.0,65,0.00,,,0.11,Wunderground v.1.13,2013-02-07 18:44:00,
2013-02-07 13:46:00,78.0,65.3,29.95,SSW,203,11.0,22.0,65,0.00,,,0.11,Wunderground v.1.13,2013-02-07 18:46:00,
2013-02-07 13:48:00,78.0,65.3,29.95,SSW,203,11.0,22.0,65,0.00,,,0.11,Wunderground v.1.13,2013-02-07 18:48:00,
2013-02-07 13:50:00,78.0,65.3,29.95,SSW,203,11.0,22.0,65,0.00,,,0.11,Wunderground v.1.13,2013-02-07 18:50:00,
2013-02-07 13:52:00,78.0,65.3,29.95,SSW,203,11.0,22.0,65,0.00,,,0.11,Wunderground v.1.13,2013-02-07 18:52:00,
2013-02-07 13:54:00,77.9,66.1,29.94,SSW,203,10.0,21.0,67,0.00,,,0.11,Wunderground v.1.13,2013-02-07 18:54:00,
2013-02-07 13:58:00,77.9,66.1,29.94,SSW,203,10.0,21.0,67,0.00,,,0.11,Wunderground v.1.13,2013-02-07 18:58:00,
2013-02-07 14:00:00,77.9,66.1,29.94,SSW,203,10.0,21.0,67,0.00,,,0.11,Wunderground v.1.13,2013-02-07 19:00:00,
2013-02-07 14:02:00,77.9,66.1,29.94,SSW,203,10.0,21.0,67,0.00,,,0.11,Wunderground v.1.13,2013-02-07 19:02:00,
2013-02-07 14:04:00,77.9,66.1,29.94,SSW,203,10.0,21.0,67,0.00,,,0.11,Wunderground v.1.13,2013-02-07 19:04:00,
2013-02-07 14:06:00,77.9,66.1,29.94,SSW,203,10.0,21.0,67,0.00,,,0.11,Wunderground v.1.13,2013-02-07 19:06:00,
2013-02-07 14:08:00,78.9,66.6,29.93,SSW,203,7.0,19.0,66,0.00,,,0.11,Wunderground v.1.13,2013-02-07 19:08:00,
2013-02-07 14:10:00,78.9,66.6,29.93,SSW,203,7.0,19.0,66,0.00,,,0.11,Wunderground v.1.13,2013-02-07 19:10:00,
2013-02-07 14:12:00,78.9,66.6,29.93,SSW,203,7.0,19.0,66,0.00,,,0.11,Wunderground v.1.13,2013-02-07 19:12:00,
2013-02-07 14:14:00,78.9,66.6,29.93,SSW,203,7.0,19.0,66,0.00,,,0.11,Wunderground v.1.13,2013-02-07 19:14:00,
2013-02-07 14:16:00,78.9,66.6,29.93,SSW,203,7.0,19.0,66,0.00,,,0.11,Wunderground v.1.13,2013-02-07 19:16:00,
2013-02-07 14:18:00,78.9,66.6,29.93,SSW,203,7.0,19.0,66,0.00,,,0.11,Wunderground v.1.13,2013-02-07 19:18:00,
2013-02-07 14:20:00,78.9,66.6,29.93,SSW,203,7.0,19.0,66,0.00,,,0.11,Wunderground v.1.13,2013-02-07 19:20:00,
2013-02-07 14:22:00,78.9,66.6,29.93,SSW,203,7.0,19.0,66,0.00,,,0.11,Wunderground v.1.13,2013-02-07 19:22:00,
2013-02-07 14:24:00,78.1,66.2,29.92,SSW,203,10.0,22.0,67,0.00,,,0.11,Wunderground v.1.13,2013-02-07 19:24:00,
2013-02-07 14:26:00,78.1,66.2,29.92,SSW,203,10.0,22.0,67,0.00,,,0.11,Wunderground v.1.13,2013-02-07 19:26:00,
2013-02-07 14:28:00,78.1,66.2,29.92,SSW,203,10.0,22.0,67,0.00,,,0.11,Wunderground v.1.13,2013-02-07 19:28:00,
2013-02-07 14:30:00,78.1,66.2,29.92,SSW,203,10.0,22.0,67,0.00,,,0.11,Wunderground v.1.13,2013-02-07 19:30:00,
2013-02-07 14:32:00,78.1,66.2,29.92,SSW,203,10.0,22.0,67,0.00,,,0.11,Wunderground v.1.13,2013-02-07 19:32:00,
2013-02-07 14:33:00,77.9,66.5,29.92,SSW,205,12.0,17.0,68,0.00,,,0.00,Wunderground v.1.13,2013-02-07 19:33:00,
2013-02-07 14:34:00,78.1,66.2,29.92,SSW,203,10.0,22.0,67,0.00,,,0.11,Wunderground v.1.13,2013-02-07 19:34:00,
2013-02-07 14:36:00,78.1,66.2,29.92,SSW,203,10.0,22.0,67,0.00,,,0.11,Wunderground v.1.13,2013-02-07 19:36:00,
2013-02-07 14:38:00,77.8,66.4,29.91,SSW,209,12.0,13.0,68,0.00,,,0.00,Wunderground v.1.13,2013-02-07 19:38:00,
2013-02-07 14:40:00,77.5,66.1,29.93,SSW,203,12.0,22.0,68,0.00,,,0.11,Wunderground v.1.13,2013-02-07 19:40:00,
2013-02-07 14:42:00,77.5,66.1,29.93,SSW,203,12.0,22.0,68,0.00,,,0.11,Wunderground v.1.13,2013-02-07 19:42:00,
2013-02-07 14:44:00,77.5,66.1,29.93,SSW,203,12.0,22.0,68,0.00,,,0.11,Wunderground v.1.13,2013-02-07 19:44:00,
2013-02-07 14:46:00,77.5,66.1,29.93,SSW,206,12.0,12.0,68,0.00,,,0.00,Wunderground v.1.13,2013-02-07 19:46:00,
2013-02-07 14:48:00,77.5,66.1,29.93,SSW,203,12.0,22.0,68,0.00,,,0.11,Wunderground v.1.13,2013-02-07 19:48:00,
2013-02-07 14:50:00,77.5,66.1,29.93,SSW,203,12.0,22.0,68,0.00,,,0.11,Wunderground v.1.13,2013-02-07 19:50:00,
2013-02-07 14:52:00,77.5,66.1,29.93,SSW,203,12.0,22.0,68,0.00,,,0.11,Wunderground v.1.13,2013-02-07 19:52:00,
2013-02-07 14:54:00,77.1,66.6,29.92,SSW,203,10.0,24.0,70,0.00,,,0.11,Wunderground v.1.13,2013-02-07 19:54:00,
2013-02-07 14:56:00,77.1,66.6,29.92,SSW,203,10.0,24.0,70,0.00,,,0.11,Wunderground v.1.13,2013-02-07 19:56:00,
2013-02-07 14:58:00,77.1,66.6,29.92,SSW,203,10.0,24.0,70,0.00,,,0.11,Wunderground v.1.13,2013-02-07 19:58:00,
2013-02-07 15:00:00,77.1,66.6,29.92,SSW,203,10.0,24.0,70,0.00,,,0.11,Wunderground v.1.13,2013-02-07 20:00:00,
2013-02-07 15:02:00,77.1,66.6,29.92,SSW,203,10.0,24.0,70,0.00,,,0.11,Wunderground v.1.13,2013-02-07 20:02:00,
2013-02-07 15:04:00,77.1,66.6,29.92,SSW,203,10.0,24.0,70,0.00,,,0.11,Wunderground v.1.13,2013-02-07 20:04:00,
2013-02-07 15:06:00,77.1,66.6,29.92,SSW,203,10.0,24.0,70,0.00,,,0.11,Wunderground v.1.13,2013-02-07 20:06:00,
2013-02-07 15:08:00,76.7,66.2,29.91,SSW,203,12.0,26.0,70,0.00,,,0.11,Wunderground v.1.13,2013-02-07 20:08:00,
2013-02-07 15:10:00,76.7,66.2,29.91,SSW,203,12.0,26.0,70,0.00,,,0.11,Wunderground v.1.13,2013-02-07 20:10:00,
2013-02-07 15:12:00,76.7,66.2,29.91,SSW,203,12.0,26.0,70,0.00,,,0.11,Wunderground v.1.13,2013-02-07 20:12:00,
2013-02-07 15:14:00,76.7,66.2,29.91,SSW,203,12.0,26.0,70,0.00,,,0.11,Wunderground v.1.13,2013-02-07 20:14:00,
2013-02-07 15:16:00,76.7,66.2,29.91,SSW,203,12.0,26.0,70,0.00,,,0.11,Wunderground v.1.13,2013-02-07 20:16:00,
2013-02-07 15:18:00,76.7,66.2,29.91,SSW,203,12.0,26.0,70,0.00,,,0.11,Wunderground v.1.13,2013-02-07 20:18:00,
2013-02-07 15:20:00,76.7,66.2,29.91,SSW,203,12.0,26.0,70,0.00,,,0.11,Wunderground v.1.13,2013-02-07 20:20:00,
2013-02-07 15:22:00,76.7,66.2,29.91,SSW,203,12.0,26.0,70,0.00,,,0.11,Wunderground v.1.13,2013-02-07 20:22:00,
2013-02-07 15:24:00,77.1,66.6,29.92,SSW,203,11.0,26.0,70,0.00,,,0.11,Wunderground v.1.13,2013-02-07 20:24:00,
2013-02-07 15:26:00,77.1,66.6,29.92,SSW,203,11.0,26.0,70,0.00,,,0.11,Wunderground v.1.13,2013-02-07 20:26:00,
2013-02-07 15:28:00,77.1,66.6,29.92,SSW,203,11.0,26.0,70,0.00,,,0.11,Wunderground v.1.13,2013-02-07 20:28:00,
2013-02-07 15:30:00,77.1,66.6,29.92,SSW,203,11.0,26.0,70,0.00,,,0.11,Wunderground v.1.13,2013-02-07 20:30:00,
2013-02-07 15:32:00,77.1,66.6,29.92,SSW,203,11.0,26.0,70,0.00,,,0.11,Wunderground v.1.13,2013-02-07 20:32:00,
2013-02-07 15:34:00,77.1,66.6,29.92,SSW,203,11.0,26.0,70,0.00,,,0.11,Wunderground v.1.13,2013-02-07 20:34:00,
2013-02-07 15:36:00,77.1,66.6,29.92,SSW,203,11.0,26.0,70,0.00,,,0.11,Wunderground v.1.13,2013-02-07 20:36:00,
2013-02-07 15:38:00,75.7,66.0,29.92,SSW,203,10.0,20.0,72,0.00,,,0.11,Wunderground v.1.13,2013-02-07 20:38:00,
2013-02-07 15:40:00,75.7,66.0,29.92,SSW,203,10.0,20.0,72,0.00,,,0.11,Wunderground v.1.13,2013-02-07 20:40:00,
2013-02-07 15:42:00,75.7,66.0,29.92,SSW,203,10.0,20.0,72,0.00,,,0.11,Wunderground v.1.13,2013-02-07 20:42:00,
2013-02-07 15:44:00,75.7,66.0,29.92,SSW,203,10.0,20.0,72,0.00,,,0.11,Wunderground v.1.13,2013-02-07 20:44:00,
2013-02-07 15:46:00,75.7,66.0,29.92,SSW,203,10.0,20.0,72,0.00,,,0.11,Wunderground v.1.13,2013-02-07 20:46:00,
2013-02-07 15:48:00,75.7,66.0,29.92,SSW,203,10.0,20.0,72,0.00,,,0.11,Wunderground v.1.13,2013-02-07 20:48:00,
2013-02-07 15:50:00,75.7,66.0,29.92,SSW,203,10.0,20.0,72,0.00,,,0.11,Wunderground v.1.13,2013-02-07 20:50:00,
2013-02-07 15:52:00,75.7,66.0,29.92,SSW,203,10.0,20.0,72,0.00,,,0.11,Wunderground v.1.13,2013-02-07 20:52:00,
2013-02-07 15:54:00,74.6,66.1,29.92,SSW,203,11.0,22.0,75,0.00,,,0.11,Wunderground v.1.13,2013-02-07 20:54:00,
2013-02-07 15:56:00,74.6,66.1,29.92,SSW,203,11.0,22.0,75,0.00,,,0.11,Wunderground v.1.13,2013-02-07 20:56:00,
2013-02-07 15:58:00,74.6,66.1,29.92,SSW,203,11.0,22.0,75,0.00,,,0.11,Wunderground v.1.13,2013-02-07 20:58:00,
2013-02-07 16:00:00,74.6,66.1,29.92,SSW,203,11.0,22.0,75,0.00,,,0.11,Wunderground v.1.13,2013-02-07 21:00:00,
2013-02-07 16:02:00,74.6,66.1,29.92,SSW,203,11.0,22.0,75,0.00,,,0.11,Wunderground v.1.13,2013-02-07 21:02:00,
2013-02-07 16:04:00,74.6,66.1,29.92,SSW,203,11.0,22.0,75,0.00,,,0.11,Wunderground v.1.13,2013-02-07 21:04:00,
2013-02-07 16:06:00,74.6,66.1,29.92,SSW,203,11.0,22.0,75,0.00,,,0.11,Wunderground v.1.13,2013-02-07 21:06:00,
2013-02-07 16:08:00,74.2,66.1,29.94,SSW,203,9.0,23.0,76,0.00,,,0.11,Wunderground v.1.13,2013-02-07 21:08:00,
2013-02-07 16:10:00,74.2,66.1,29.94,SSW,203,9.0,23.0,76,0.00,,,0.11,Wunderground v.1.13,2013-02-07 21:10:00,
2013-02-07 16:12:00,74.2,66.1,29.94,SSW,203,9.0,23.0,76,0.00,,,0.11,Wunderground v.1.13,2013-02-07 21:12:00,
2013-02-07 16:14:00,74.2,66.1,29.94,SSW,203,9.0,23.0,76,0.00,,,0.11,Wunderground v.1.13,2013-02-07 21:14:00,
2013-02-07 16:16:00,74.2,66.1,29.94,SSW,203,9.0,23.0,76,0.00,,,0.11,Wunderground v.1.13,2013-02-07 21:16:00,
2013-02-07 16:18:00,74.2,66.1,29.94,SSW,203,9.0,23.0,76,0.00,,,0.11,Wunderground v.1.13,2013-02-07 21:18:00,
2013-02-07 16:20:00,74.2,66.1,29.94,SSW,203,9.0,23.0,76,0.00,,,0.11,Wunderground v.1.13,2013-02-07 21:20:00,
2013-02-07 16:22:00,74.2,66.1,29.94,SSW,203,9.0,23.0,76,0.00,,,0.11,Wunderground v.1.13,2013-02-07 21:22:00,
2013-02-07 16:24:00,73.7,66.4,29.92,SSW,203,8.0,21.0,78,0.00,,,0.11,Wunderground v.1.13,2013-02-07 21:24:00,
2013-02-07 16:26:00,73.7,66.4,29.92,SSW,203,8.0,21.0,78,0.00,,,0.11,Wunderground v.1.13,2013-02-07 21:26:00,
2013-02-07 16:28:00,73.7,66.4,29.92,SSW,203,8.0,21.0,78,0.00,,,0.11,Wunderground v.1.13,2013-02-07 21:28:00,
2013-02-07 16:30:00,73.7,66.4,29.92,SSW,203,8.0,21.0,78,0.00,,,0.11,Wunderground v.1.13,2013-02-07 21:30:00,
2013-02-07 16:32:00,73.7,66.4,29.92,SSW,203,8.0,21.0,78,0.00,,,0.11,Wunderground v.1.13,2013-02-07 21:32:00,
2013-02-07 16:34:00,73.7,66.4,29.92,SSW,203,8.0,21.0,78,0.00,,,0.11,Wunderground v.1.13,2013-02-07 21:34:00,
2013-02-07 16:36:00,73.7,66.4,29.92,SSW,203,8.0,21.0,78,0.00,,,0.11,Wunderground v.1.13,2013-02-07 21:36:00,
2013-02-07 16:38:00,72.8,66.3,29.92,SSW,203,11.0,21.0,80,0.00,,,0.11,Wunderground v.1.13,2013-02-07 21:38:00,
2013-02-07 16:40:00,72.8,66.3,29.92,SSW,203,11.0,21.0,80,0.00,,,0.11,Wunderground v.1.13,2013-02-07 21:40:00,
2013-02-07 16:42:00,72.8,66.3,29.92,SSW,203,11.0,21.0,80,0.00,,,0.11,Wunderground v.1.13,2013-02-07 21:42:00,
2013-02-07 16:44:00,72.8,66.3,29.92,SSW,203,11.0,21.0,80,0.00,,,0.11,Wunderground v.1.13,2013-02-07 21:44:00,
2013-02-07 16:46:00,72.8,66.3,29.92,SSW,203,11.0,21.0,80,0.00,,,0.11,Wunderground v.1.13,2013-02-07 21:46:00,
2013-02-07 16:48:00,72.8,66.3,29.92,SSW,203,11.0,21.0,80,0.00,,,0.11,Wunderground v.1.13,2013-02-07 21:48:00,
2013-02-07 16:50:00,72.8,66.3,29.92,SSW,203,11.0,21.0,80,0.00,,,0.11,Wunderground v.1.13,2013-02-07 21:50:00,
2013-02-07 16:52:00,72.8,66.3,29.92,SSW,203,11.0,21.0,80,0.00,,,0.11,Wunderground v.1.13,2013-02-07 21:52:00,
2013-02-07 16:54:00,72.7,66.2,29.94,SSW,203,10.0,20.0,80,0.00,,,0.11,Wunderground v.1.13,2013-02-07 21:54:00,
2013-02-07 16:56:00,72.7,66.2,29.94,SSW,203,10.0,20.0,80,0.00,,,0.11,Wunderground v.1.13,2013-02-07 21:56:00,
2013-02-07 16:58:00,72.7,66.2,29.94,SSW,203,10.0,20.0,80,0.00,,,0.11,Wunderground v.1.13,2013-02-07 21:58:00,
2013-02-07 17:00:00,72.7,66.2,29.94,SSW,203,10.0,20.0,80,0.00,,,0.11,Wunderground v.1.13,2013-02-07 22:00:00,
2013-02-07 17:02:00,72.7,66.2,29.94,SSW,203,10.0,20.0,80,0.00,,,0.11,Wunderground v.1.13,2013-02-07 22:02:00,
2013-02-07 17:04:00,72.7,66.2,29.94,SSW,203,10.0,20.0,80,0.00,,,0.11,Wunderground v.1.13,2013-02-07 22:04:00,
2013-02-07 17:06:00,72.7,66.2,29.94,SSW,203,10.0,20.0,80,0.00,,,0.11,Wunderground v.1.13,2013-02-07 22:06:00,
2013-02-07 17:08:00,72.6,66.4,29.94,SSW,203,7.0,16.0,81,0.00,,,0.11,Wunderground v.1.13,2013-02-07 22:08:00,
2013-02-07 17:10:00,72.6,66.4,29.94,SSW,203,7.0,16.0,81,0.00,,,0.11,Wunderground v.1.13,2013-02-07 22:10:00,
2013-02-07 17:12:00,72.6,66.4,29.94,SSW,203,7.0,16.0,81,0.00,,,0.11,Wunderground v.1.13,2013-02-07 22:12:00,
2013-02-07 17:14:00,72.6,66.4,29.94,SSW,203,7.0,16.0,81,0.00,,,0.11,Wunderground v.1.13,2013-02-07 22:14:00,
2013-02-07 17:16:00,72.6,66.4,29.94,SSW,203,7.0,16.0,81,0.00,,,0.11,Wunderground v.1.13,2013-02-07 22:16:00,
2013-02-07 17:18:00,72.6,66.4,29.94,SSW,203,7.0,16.0,81,0.00,,,0.11,Wunderground v.1.13,2013-02-07 22:18:00,
2013-02-07 17:20:00,72.6,66.4,29.94,SSW,203,7.0,16.0,81,0.00,,,0.11,Wunderground v.1.13,2013-02-07 22:20:00,
2013-02-07 17:22:00,72.6,66.4,29.94,SSW,203,7.0,16.0,81,0.00,,,0.11,Wunderground v.1.13,2013-02-07 22:22:00,
2013-02-07 17:24:00,71.4,66.7,29.93,SSW,203,7.0,15.0,85,0.00,,,0.11,Wunderground v.1.13,2013-02-07 22:24:00,
2013-02-07 17:26:00,71.4,66.7,29.93,SSW,203,7.0,15.0,85,0.00,,,0.11,Wunderground v.1.13,2013-02-07 22:26:00,
2013-02-07 17:28:00,71.4,66.7,29.93,SSW,203,7.0,15.0,85,0.00,,,0.11,Wunderground v.1.13,2013-02-07 22:28:00,
2013-02-07 17:30:00,71.4,66.7,29.93,SSW,203,7.0,15.0,85,0.00,,,0.11,Wunderground v.1.13,2013-02-07 22:30:00,
2013-02-07 17:32:00,71.4,66.7,29.93,SSW,203,7.0,15.0,85,0.00,,,0.11,Wunderground v.1.13,2013-02-07 22:32:00,
2013-02-07 17:34:00,71.4,66.7,29.93,SSW,203,7.0,15.0,85,0.00,,,0.11,Wunderground v.1.13,2013-02-07 22:34:00,
2013-02-07 17:36:00,71.4,66.7,29.93,SSW,203,7.0,15.0,85,0.00,,,0.11,Wunderground v.1.13,2013-02-07 22:36:00,
2013-02-07 17:38:00,70.9,66.5,29.92,SSW,203,8.0,15.0,86,0.01,,,0.11,Wunderground v.1.13,2013-02-07 22:38:00,
2013-02-07 17:40:00,70.9,66.5,29.92,SSW,203,8.0,15.0,86,0.01,,,0.11,Wunderground v.1.13,2013-02-07 22:40:00,
2013-02-07 17:42:00,70.9,66.5,29.92,SSW,203,8.0,15.0,86,0.01,,,0.11,Wunderground v.1.13,2013-02-07 22:42:00,
2013-02-07 17:44:00,70.9,66.5,29.92,SSW,203,8.0,15.0,86,0.01,,,0.11,Wunderground v.1.13,2013-02-07 22:44:00,
2013-02-07 17:46:00,70.9,66.5,29.92,SSW,203,8.0,15.0,86,0.01,,,0.11,Wunderground v.1.13,2013-02-07 22:46:00,
2013-02-07 17:48:00,70.9,66.5,29.92,SSW,203,8.0,15.0,86,0.01,,,0.11,Wunderground v.1.13,2013-02-07 22:48:00,
2013-02-07 17:50:00,70.9,66.5,29.92,SSW,203,8.0,15.0,86,0.01,,,0.11,Wunderground v.1.13,2013-02-07 22:50:00,
2013-02-07 17:52:00,70.9,66.5,29.92,SSW,203,8.0,15.0,86,0.01,,,0.11,Wunderground v.1.13,2013-02-07 22:52:00,
2013-02-07 17:54:00,70.7,66.6,29.94,SSW,203,8.0,21.0,87,0.01,,,0.11,Wunderground v.1.13,2013-02-07 22:54:00,
2013-02-07 17:56:00,70.7,66.6,29.94,SSW,203,8.0,21.0,87,0.01,,,0.11,Wunderground v.1.13,2013-02-07 22:56:00,
2013-02-07 17:58:00,70.7,66.6,29.94,SSW,203,8.0,21.0,87,0.01,,,0.11,Wunderground v.1.13,2013-02-07 22:58:00,
2013-02-07 18:00:00,70.7,66.6,29.94,SSW,203,8.0,21.0,87,0.01,,,0.11,Wunderground v.1.13,2013-02-07 23:00:00,
2013-02-07 18:02:00,70.7,66.6,29.94,SSW,203,8.0,21.0,87,0.01,,,0.11,Wunderground v.1.13,2013-02-07 23:02:00,
2013-02-07 18:04:00,70.7,66.6,29.94,SSW,203,8.0,21.0,87,0.01,,,0.11,Wunderground v.1.13,2013-02-07 23:04:00,
2013-02-07 18:06:00,70.7,66.6,29.94,SSW,203,8.0,21.0,87,0.01,,,0.11,Wunderground v.1.13,2013-02-07 23:06:00,
2013-02-07 18:08:00,70.4,66.7,29.92,SSW,203,9.0,18.0,88,0.01,,,0.11,Wunderground v.1.13,2013-02-07 23:08:00,
2013-02-07 18:10:00,70.4,66.7,29.92,SSW,203,9.0,18.0,88,0.01,,,0.11,Wunderground v.1.13,2013-02-07 23:10:00,
2013-02-07 18:12:00,70.4,66.7,29.92,SSW,203,9.0,18.0,88,0.01,,,0.11,Wunderground v.1.13,2013-02-07 23:12:00,
2013-02-07 18:14:00,70.4,66.7,29.92,SSW,203,9.0,18.0,88,0.01,,,0.11,Wunderground v.1.13,2013-02-07 23:14:00,
2013-02-07 18:16:00,70.4,66.7,29.92,SSW,203,9.0,18.0,88,0.01,,,0.11,Wunderground v.1.13,2013-02-07 23:16:00,
2013-02-07 18:18:00,70.4,66.7,29.92,SSW,203,9.0,18.0,88,0.01,,,0.11,Wunderground v.1.13,2013-02-07 23:18:00,
2013-02-07 18:20:00,70.4,66.7,29.92,SSW,203,9.0,18.0,88,0.01,,,0.11,Wunderground v.1.13,2013-02-07 23:20:00,
2013-02-07 18:22:00,70.4,66.7,29.92,SSW,203,9.0,18.0,88,0.01,,,0.11,Wunderground v.1.13,2013-02-07 23:22:00,
2013-02-07 18:24:00,70.3,66.6,29.91,South,180,6.0,16.0,88,0.01,,,0.11,Wunderground v.1.13,2013-02-07 23:24:00,
2013-02-07 18:26:00,70.3,66.6,29.91,South,180,6.0,16.0,88,0.01,,,0.11,Wunderground v.1.13,2013-02-07 23:26:00,
2013-02-07 18:28:00,70.3,66.6,29.91,South,180,6.0,16.0,88,0.01,,,0.11,Wunderground v.1.13,2013-02-07 23:28:00,
2013-02-07 18:30:00,70.3,66.6,29.91,South,180,6.0,16.0,88,0.01,,,0.11,Wunderground v.1.13,2013-02-07 23:30:00,
2013-02-07 18:32:00,70.3,66.6,29.91,South,180,6.0,16.0,88,0.01,,,0.11,Wunderground v.1.13,2013-02-07 23:32:00,
2013-02-07 18:34:00,70.3,66.6,29.91,South,180,6.0,16.0,88,0.01,,,0.11,Wunderground v.1.13,2013-02-07 23:34:00,
2013-02-07 18:36:00,70.3,66.6,29.91,South,180,6.0,16.0,88,0.01,,,0.11,Wunderground v.1.13,2013-02-07 23:36:00,
2013-02-07 18:38:00,70.2,66.8,29.89,SSW,203,4.0,16.0,89,0.00,,,0.11,Wunderground v.1.13,2013-02-07 23:38:00,
2013-02-07 18:40:00,70.2,66.8,29.89,SSW,203,4.0,16.0,89,0.00,,,0.11,Wunderground v.1.13,2013-02-07 23:40:00,
2013-02-07 18:42:00,70.2,66.8,29.89,SSW,203,4.0,16.0,89,0.00,,,0.11,Wunderground v.1.13,2013-02-07 23:42:00,
2013-02-07 18:44:00,70.2,66.8,29.89,SSW,203,4.0,16.0,89,0.00,,,0.11,Wunderground v.1.13,2013-02-07 23:44:00,
2013-02-07 18:46:00,70.2,66.8,29.89,SSW,203,4.0,16.0,89,0.00,,,0.11,Wunderground v.1.13,2013-02-07 23:46:00,
2013-02-07 18:48:00,70.2,66.8,29.89,SSW,203,4.0,16.0,89,0.00,,,0.11,Wunderground v.1.13,2013-02-07 23:48:00,
2013-02-07 18:50:00,70.2,66.8,29.89,SSW,203,4.0,16.0,89,0.00,,,0.11,Wunderground v.1.13,2013-02-07 23:50:00,
2013-02-07 18:52:00,70.2,66.8,29.89,SSW,203,4.0,16.0,89,0.00,,,0.11,Wunderground v.1.13,2013-02-07 23:52:00,
2013-02-07 18:54:00,70.3,66.9,29.89,SSE,158,5.0,16.0,89,0.00,,,0.11,Wunderground v.1.13,2013-02-07 23:54:00,
2013-02-07 18:56:00,70.3,66.9,29.89,SSE,158,5.0,16.0,89,0.00,,,0.11,Wunderground v.1.13,2013-02-07 23:56:00,
2013-02-07 18:58:00,70.3,66.9,29.89,SSE,158,5.0,16.0,89,0.00,,,0.11,Wunderground v.1.13,2013-02-07 23:58:00,
2013-02-07 19:00:00,70.3,66.9,29.89,SSE,158,5.0,16.0,89,0.00,,,0.11,Wunderground v.1.13,2013-02-08 00:00:00,
2013-02-07 19:02:00,70.3,66.9,29.89,SSE,158,5.0,16.0,89,0.00,,,0.11,Wunderground v.1.13,2013-02-08 00:02:00,
2013-02-07 19:04:00,70.3,66.9,29.89,SSE,158,5.0,16.0,89,0.00,,,0.11,Wunderground v.1.13,2013-02-08 00:04:00,
2013-02-07 19:06:00,70.3,66.9,29.89,SSE,158,5.0,16.0,89,0.00,,,0.11,Wunderground v.1.13,2013-02-08 00:06:00,
2013-02-07 19:08:00,70.7,67.3,29.90,SSW,203,3.0,11.0,89,0.00,,,0.11,Wunderground v.1.13,2013-02-08 00:08:00,
2013-02-07 19:10:00,70.7,67.3,29.90,SSW,203,3.0,11.0,89,0.00,,,0.11,Wunderground v.1.13,2013-02-08 00:10:00,
2013-02-07 19:12:00,70.7,67.3,29.90,SSW,203,3.0,11.0,89,0.00,,,0.11,Wunderground v.1.13,2013-02-08 00:12:00,
2013-02-07 19:14:00,70.7,67.3,29.90,SSW,203,3.0,11.0,89,0.00,,,0.11,Wunderground v.1.13,2013-02-08 00:14:00,
2013-02-07 19:16:00,70.7,67.3,29.90,SSW,203,3.0,11.0,89,0.00,,,0.11,Wunderground v.1.13,2013-02-08 00:16:00,
2013-02-07 19:18:00,70.7,67.3,29.90,SSW,203,3.0,11.0,89,0.00,,,0.11,Wunderground v.1.13,2013-02-08 00:18:00,
2013-02-07 19:20:00,70.7,67.3,29.90,SSW,203,3.0,11.0,89,0.00,,,0.11,Wunderground v.1.13,2013-02-08 00:20:00,
2013-02-07 19:22:00,70.7,67.3,29.90,SSW,203,3.0,11.0,89,0.00,,,0.11,Wunderground v.1.13,2013-02-08 00:22:00,
2013-02-07 19:24:00,70.6,67.2,29.91,SSW,203,7.0,21.0,89,0.02,,,0.11,Wunderground v.1.13,2013-02-08 00:24:00,
2013-02-07 19:26:00,70.6,67.2,29.91,SSW,203,7.0,21.0,89,0.02,,,0.11,Wunderground v.1.13,2013-02-08 00:26:00,
2013-02-07 19:28:00,70.6,67.2,29.91,SSW,203,7.0,21.0,89,0.02,,,0.11,Wunderground v.1.13,2013-02-08 00:28:00,
2013-02-07 19:30:00,70.6,67.2,29.91,SSW,203,7.0,21.0,89,0.02,,,0.11,Wunderground v.1.13,2013-02-08 00:30:00,
2013-02-07 19:32:00,70.6,67.2,29.91,SSW,203,7.0,21.0,89,0.02,,,0.11,Wunderground v.1.13,2013-02-08 00:32:00,
2013-02-07 19:34:00,70.6,67.2,29.91,SSW,203,7.0,21.0,89,0.02,,,0.11,Wunderground v.1.13,2013-02-08 00:34:00,
2013-02-07 19:36:00,70.6,67.2,29.91,SSW,203,7.0,21.0,89,0.02,,,0.11,Wunderground v.1.13,2013-02-08 00:36:00,
2013-02-07 19:38:00,70.8,67.7,29.92,SSW,203,12.0,26.0,90,0.04,,,0.11,Wunderground v.1.13,2013-02-08 00:38:00,
2013-02-07 19:40:00,70.8,67.7,29.92,SSW,203,12.0,26.0,90,0.04,,,0.11,Wunderground v.1.13,2013-02-08 00:40:00,
2013-02-07 19:42:00,70.8,67.7,29.92,SSW,203,12.0,26.0,90,0.04,,,0.11,Wunderground v.1.13,2013-02-08 00:42:00,
2013-02-07 19:44:00,70.8,67.7,29.92,SSW,203,12.0,26.0,90,0.04,,,0.11,Wunderground v.1.13,2013-02-08 00:44:00,
2013-02-07 19:46:00,70.8,67.7,29.92,SSW,203,12.0,26.0,90,0.04,,,0.11,Wunderground v.1.13,2013-02-08 00:46:00,
2013-02-07 19:48:00,70.8,67.7,29.92,SSW,203,12.0,26.0,90,0.04,,,0.11,Wunderground v.1.13,2013-02-08 00:48:00,
2013-02-07 19:50:00,70.8,67.7,29.92,SSW,203,12.0,26.0,90,0.04,,,0.11,Wunderground v.1.13,2013-02-08 00:50:00,
2013-02-07 19:52:00,70.8,67.7,29.92,SSW,203,12.0,26.0,90,0.04,,,0.11,Wunderground v.1.13,2013-02-08 00:52:00,
2013-02-07 19:54:00,70.4,67.6,29.93,SSW,203,11.0,24.0,91,0.06,,,0.11,Wunderground v.1.13,2013-02-08 00:54:00,
2013-02-07 19:56:00,70.4,67.6,29.93,SSW,203,11.0,24.0,91,0.06,,,0.11,Wunderground v.1.13,2013-02-08 00:56:00,
2013-02-07 19:58:00,70.4,67.6,29.93,SSW,203,11.0,24.0,91,0.06,,,0.11,Wunderground v.1.13,2013-02-08 00:58:00,
2013-02-07 20:00:00,70.4,67.6,29.93,SSW,203,11.0,24.0,91,0.06,,,0.11,Wunderground v.1.13,2013-02-08 01:00:00,
2013-02-07 20:02:00,70.4,67.6,29.93,SSW,203,11.0,24.0,91,0.06,,,0.11,Wunderground v.1.13,2013-02-08 01:02:00,
2013-02-07 20:04:00,70.4,67.6,29.93,SSW,203,11.0,24.0,91,0.06,,,0.11,Wunderground v.1.13,2013-02-08 01:04:00,
2013-02-07 20:06:00,70.4,67.6,29.93,SSW,203,11.0,24.0,91,0.06,,,0.11,Wunderground v.1.13,2013-02-08 01:06:00,
2013-02-07 20:08:00,70.1,67.7,29.94,SW,225,7.0,18.0,92,0.08,,,0.11,Wunderground v.1.13,2013-02-08 01:08:00,
2013-02-07 20:10:00,70.1,67.7,29.94,SW,225,7.0,18.0,92,0.08,,,0.11,Wunderground v.1.13,2013-02-08 01:10:00,
2013-02-07 20:12:00,70.1,67.7,29.94,SW,225,7.0,18.0,92,0.08,,,0.11,Wunderground v.1.13,2013-02-08 01:12:00,
2013-02-07 20:14:00,70.1,67.7,29.94,SW,225,7.0,18.0,92,0.08,,,0.11,Wunderground v.1.13,2013-02-08 01:14:00,
2013-02-07 20:16:00,70.1,67.7,29.94,SW,225,7.0,18.0,92,0.08,,,0.11,Wunderground v.1.13,2013-02-08 01:16:00,
2013-02-07 20:18:00,70.1,67.7,29.94,SW,225,7.0,18.0,92,0.08,,,0.11,Wunderground v.1.13,2013-02-08 01:18:00,
2013-02-07 20:20:00,70.1,67.7,29.94,SW,225,7.0,18.0,92,0.08,,,0.11,Wunderground v.1.13,2013-02-08 01:20:00,
2013-02-07 20:22:00,70.1,67.7,29.94,SW,225,7.0,18.0,92,0.08,,,0.11,Wunderground v.1.13,2013-02-08 01:22:00,
2013-02-07 20:24:00,69.7,67.0,29.92,SSW,203,5.0,14.0,91,0.07,,,0.11,Wunderground v.1.13,2013-02-08 01:24:00,
2013-02-07 20:26:00,69.7,67.0,29.92,SSW,203,5.0,14.0,91,0.07,,,0.11,Wunderground v.1.13,2013-02-08 01:26:00,
2013-02-07 20:28:00,69.7,67.0,29.92,SSW,203,5.0,14.0,91,0.07,,,0.11,Wunderground v.1.13,2013-02-08 01:28:00,
2013-02-07 20:30:00,69.7,67.0,29.92,SSW,203,5.0,14.0,91,0.07,,,0.11,Wunderground v.1.13,2013-02-08 01:30:00,
2013-02-07 20:34:00,69.7,67.0,29.92,SSW,203,5.0,14.0,91,0.07,,,0.11,Wunderground v.1.13,2013-02-08 01:34:00,
2013-02-07 20:36:00,69.7,67.0,29.92,SSW,203,5.0,14.0,91,0.07,,,0.11,Wunderground v.1.13,2013-02-08 01:36:00,
2013-02-07 20:38:00,69.4,67.0,29.92,SSW,203,2.0,8.0,92,0.06,,,0.11,Wunderground v.1.13,2013-02-08 01:38:00,
2013-02-07 20:40:00,69.4,67.0,29.92,SSW,203,2.0,8.0,92,0.06,,,0.11,Wunderground v.1.13,2013-02-08 01:40:00,
2013-02-07 20:42:00,69.4,67.0,29.92,SSW,203,2.0,8.0,92,0.06,,,0.11,Wunderground v.1.13,2013-02-08 01:42:00,
2013-02-07 20:44:00,69.4,67.0,29.92,SSW,203,2.0,8.0,92,0.06,,,0.11,Wunderground v.1.13,2013-02-08 01:44:00,
2013-02-07 20:46:00,69.4,67.0,29.92,SSW,203,2.0,8.0,92,0.06,,,0.11,Wunderground v.1.13,2013-02-08 01:46:00,
2013-02-07 20:48:00,69.4,67.0,29.92,SSW,203,2.0,8.0,92,0.06,,,0.11,Wunderground v.1.13,2013-02-08 01:48:00,
2013-02-07 20:50:00,69.4,67.0,29.92,SSW,203,2.0,8.0,92,0.06,,,0.11,Wunderground v.1.13,2013-02-08 01:50:00,
2013-02-07 20:52:00,69.4,67.0,29.92,SSW,203,2.0,8.0,92,0.06,,,0.11,Wunderground v.1.13,2013-02-08 01:52:00,
2013-02-07 20:54:00,69.7,67.3,29.93,SSW,203,3.0,12.0,92,0.04,,,0.11,Wunderground v.1.13,2013-02-08 01:54:00,
2013-02-07 20:56:00,69.7,67.3,29.93,SSW,203,3.0,12.0,92,0.04,,,0.11,Wunderground v.1.13,2013-02-08 01:56:00,
2013-02-07 20:58:00,69.7,67.3,29.93,SSW,203,3.0,12.0,92,0.04,,,0.11,Wunderground v.1.13,2013-02-08 01:58:00,
2013-02-07 21:02:00,69.7,67.3,29.93,SSW,203,3.0,12.0,92,0.04,,,0.11,Wunderground v.1.13,2013-02-08 02:02:00,
2013-02-07 21:04:00,69.7,67.3,29.93,SSW,203,3.0,12.0,92,0.04,,,0.11,Wunderground v.1.13,2013-02-08 02:04:00,
2013-02-07 21:06:00,69.7,67.3,29.93,SSW,203,3.0,12.0,92,0.04,,,0.11,Wunderground v.1.13,2013-02-08 02:06:00,
2013-02-07 21:08:00,69.6,67.2,29.93,SSW,203,4.0,12.0,92,0.02,,,0.11,Wunderground v.1.13,2013-02-08 02:08:00,
2013-02-07 21:10:00,69.6,67.2,29.93,SSW,203,4.0,12.0,92,0.02,,,0.11,Wunderground v.1.13,2013-02-08 02:10:00,
2013-02-07 21:12:00,69.6,67.2,29.93,SSW,203,4.0,12.0,92,0.02,,,0.11,Wunderground v.1.13,2013-02-08 02:12:00,
2013-02-07 21:14:00,69.6,67.2,29.93,SSW,203,4.0,12.0,92,0.02,,,0.11,Wunderground v.1.13,2013-02-08 02:14:00,
2013-02-07 21:16:00,69.6,67.2,29.93,SSW,203,4.0,12.0,92,0.02,,,0.11,Wunderground v.1.13,2013-02-08 02:16:00,
2013-02-07 21:18:00,69.6,67.2,29.93,SSW,203,4.0,12.0,92,0.02,,,0.11,Wunderground v.1.13,2013-02-08 02:18:00,
2013-02-07 21:20:00,69.6,67.2,29.93,SSW,203,4.0,12.0,92,0.02,,,0.11,Wunderground v.1.13,2013-02-08 02:20:00,
2013-02-07 21:22:00,69.6,67.2,29.93,SSW,203,4.0,12.0,92,0.02,,,0.11,Wunderground v.1.13,2013-02-08 02:22:00,
2013-02-07 21:24:00,69.5,66.8,29.92,SSW,203,4.0,14.0,91,0.01,,,0.11,Wunderground v.1.13,2013-02-08 02:24:00,
2013-02-07 21:26:00,69.5,66.8,29.92,SSW,203,4.0,14.0,91,0.01,,,0.11,Wunderground v.1.13,2013-02-08 02:26:00,
2013-02-07 21:28:00,69.5,66.8,29.92,SSW,203,4.0,14.0,91,0.01,,,0.11,Wunderground v.1.13,2013-02-08 02:28:00,
2013-02-07 21:30:00,69.5,66.8,29.92,SSW,203,4.0,14.0,91,0.01,,,0.11,Wunderground v.1.13,2013-02-08 02:30:00,
2013-02-07 21:32:00,69.5,66.8,29.92,SSW,203,4.0,14.0,91,0.01,,,0.11,Wunderground v.1.13,2013-02-08 02:32:00,
2013-02-07 21:34:00,69.5,66.8,29.92,SSW,203,4.0,14.0,91,0.01,,,0.11,Wunderground v.1.13,2013-02-08 02:34:00,
2013-02-07 21:36:00,69.5,66.8,29.92,SSW,203,4.0,14.0,91,0.01,,,0.11,Wunderground v.1.13,2013-02-08 02:36:00,
2013-02-07 21:38:00,69.4,66.7,29.92,SSW,203,4.0,12.0,91,0.00,,,0.11,Wunderground v.1.13,2013-02-08 02:38:00,
2013-02-07 21:40:00,69.4,66.7,29.92,SSW,203,4.0,12.0,91,0.00,,,0.11,Wunderground v.1.13,2013-02-08 02:40:00,
2013-02-07 21:42:00,69.4,66.7,29.92,SSW,203,4.0,12.0,91,0.00,,,0.11,Wunderground v.1.13,2013-02-08 02:42:00,
2013-02-07 21:44:00,69.4,66.7,29.92,SSW,203,4.0,12.0,91,0.00,,,0.11,Wunderground v.1.13,2013-02-08 02:44:00,
2013-02-07 21:46:00,69.4,66.7,29.92,SSW,203,4.0,12.0,91,0.00,,,0.11,Wunderground v.1.13,2013-02-08 02:46:00,
2013-02-07 21:48:00,69.4,66.7,29.92,SSW,203,4.0,12.0,91,0.00,,,0.11,Wunderground v.1.13,2013-02-08 02:48:00,
2013-02-07 21:50:00,69.4,66.7,29.92,SSW,203,4.0,12.0,91,0.00,,,0.11,Wunderground v.1.13,2013-02-08 02:50:00,
2013-02-07 21:52:00,69.4,66.7,29.92,SSW,203,4.0,12.0,91,0.00,,,0.11,Wunderground v.1.13,2013-02-08 02:52:00,
2013-02-07 21:54:00,69.3,66.6,29.93,SSW,203,4.0,12.0,91,0.00,,,0.11,Wunderground v.1.13,2013-02-08 02:54:00,
2013-02-07 21:56:00,69.3,66.6,29.93,SSW,203,4.0,12.0,91,0.00,,,0.11,Wunderground v.1.13,2013-02-08 02:56:00,
2013-02-07 21:58:00,69.3,66.6,29.93,SSW,203,4.0,12.0,91,0.00,,,0.11,Wunderground v.1.13,2013-02-08 02:58:00,
2013-02-07 22:00:00,69.3,66.6,29.93,SSW,203,4.0,12.0,91,0.00,,,0.11,Wunderground v.1.13,2013-02-08 03:00:00,
2013-02-07 22:02:00,69.3,66.6,29.93,SSW,203,4.0,12.0,91,0.00,,,0.11,Wunderground v.1.13,2013-02-08 03:02:00,
2013-02-07 22:04:00,69.3,66.6,29.93,SSW,203,4.0,12.0,91,0.00,,,0.11,Wunderground v.1.13,2013-02-08 03:04:00,
2013-02-07 22:06:00,69.3,66.6,29.93,SSW,203,4.0,12.0,91,0.00,,,0.11,Wunderground v.1.13,2013-02-08 03:06:00,
2013-02-07 22:08:00,69.3,66.6,29.92,SSW,203,5.0,14.0,91,0.00,,,0.11,Wunderground v.1.13,2013-02-08 03:08:00,
2013-02-07 22:10:00,69.3,66.6,29.92,SSW,203,5.0,14.0,91,0.00,,,0.11,Wunderground v.1.13,2013-02-08 03:10:00,
2013-02-07 22:12:00,69.3,66.6,29.92,SSW,203,5.0,14.0,91,0.00,,,0.11,Wunderground v.1.13,2013-02-08 03:12:00,
2013-02-07 22:14:00,69.3,66.6,29.92,SSW,203,5.0,14.0,91,0.00,,,0.11,Wunderground v.1.13,2013-02-08 03:14:00,
2013-02-07 22:16:00,69.3,66.6,29.92,SSW,203,5.0,14.0,91,0.00,,,0.11,Wunderground v.1.13,2013-02-08 03:16:00,
2013-02-07 22:18:00,69.3,66.6,29.92,SSW,203,5.0,14.0,91,0.00,,,0.11,Wunderground v.1.13,2013-02-08 03:18:00,
2013-02-07 22:20:00,69.3,66.6,29.92,SSW,203,5.0,14.0,91,0.00,,,0.11,Wunderground v.1.13,2013-02-08 03:20:00,
2013-02-07 22:22:00,69.3,66.6,29.92,SSW,203,5.0,14.0,91,0.00,,,0.11,Wunderground v.1.13,2013-02-08 03:22:00,
2013-02-07 22:24:00,69.4,66.7,29.93,SW,225,4.0,16.0,91,0.00,,,0.11,Wunderground v.1.13,2013-02-08 03:24:00,
2013-02-07 22:26:00,69.4,66.7,29.93,SW,225,4.0,16.0,91,0.00,,,0.11,Wunderground v.1.13,2013-02-08 03:26:00,
2013-02-07 22:28:00,69.4,66.7,29.93,SW,225,4.0,16.0,91,0.00,,,0.11,Wunderground v.1.13,2013-02-08 03:28:00,
2013-02-07 22:30:00,69.4,66.7,29.93,SW,225,4.0,16.0,91,0.00,,,0.11,Wunderground v.1.13,2013-02-08 03:30:00,
2013-02-07 22:32:00,69.4,66.7,29.93,SW,225,4.0,16.0,91,0.00,,,0.11,Wunderground v.1.13,2013-02-08 03:32:00,
2013-02-07 22:34:00,69.4,66.7,29.93,SW,225,4.0,16.0,91,0.00,,,0.11,Wunderground v.1.13,2013-02-08 03:34:00,
2013-02-07 22:36:00,69.4,66.7,29.93,SW,225,4.0,16.0,91,0.00,,,0.11,Wunderground v.1.13,2013-02-08 03:36:00,
2013-02-07 22:38:00,69.5,66.8,29.93,SW,225,4.0,14.0,91,0.00,,,0.11,Wunderground v.1.13,2013-02-08 03:38:00,
2013-02-07 22:40:00,69.5,66.8,29.93,SW,225,4.0,14.0,91,0.00,,,0.11,Wunderground v.1.13,2013-02-08 03:40:00,
2013-02-07 22:42:00,69.5,66.8,29.93,SW,225,4.0,14.0,91,0.00,,,0.11,Wunderground v.1.13,2013-02-08 03:42:00,
2013-02-07 22:44:00,69.5,66.8,29.93,SW,225,4.0,14.0,91,0.00,,,0.11,Wunderground v.1.13,2013-02-08 03:44:00,
2013-02-07 22:46:00,69.5,66.8,29.93,SW,225,4.0,14.0,91,0.00,,,0.11,Wunderground v.1.13,2013-02-08 03:46:00,
2013-02-07 22:48:00,69.5,66.8,29.93,SW,225,4.0,14.0,91,0.00,,,0.11,Wunderground v.1.13,2013-02-08 03:48:00,
2013-02-07 22:50:00,69.5,66.8,29.93,SW,225,4.0,14.0,91,0.00,,,0.11,Wunderground v.1.13,2013-02-08 03:50:00,
2013-02-07 22:52:00,69.5,66.8,29.93,SW,225,4.0,14.0,91,0.00,,,0.11,Wunderground v.1.13,2013-02-08 03:52:00,
2013-02-07 22:54:00,69.4,67.0,29.92,SW,225,4.0,10.0,92,0.00,,,0.11,Wunderground v.1.13,2013-02-08 03:54:00,
2013-02-07 22:56:00,69.4,67.0,29.92,SW,225,4.0,10.0,92,0.00,,,0.11,Wunderground v.1.13,2013-02-08 03:56:00,
2013-02-07 22:58:00,69.4,67.0,29.92,SW,225,4.0,10.0,92,0.00,,,0.11,Wunderground v.1.13,2013-02-08 03:58:00,
2013-02-07 23:00:00,69.4,67.0,29.92,SW,225,4.0,10.0,92,0.00,,,0.11,Wunderground v.1.13,2013-02-08 04:00:00,
2013-02-07 23:02:00,69.4,67.0,29.92,SW,225,4.0,10.0,92,0.00,,,0.11,Wunderground v.1.13,2013-02-08 04:02:00,
2013-02-07 23:04:00,69.4,67.0,29.92,SW,225,4.0,10.0,92,0.00,,,0.11,Wunderground v.1.13,2013-02-08 04:04:00,
2013-02-07 23:06:00,69.4,67.0,29.92,SW,225,4.0,10.0,92,0.00,,,0.11,Wunderground v.1.13,2013-02-08 04:06:00,
2013-02-07 23:08:00,69.8,67.1,29.92,SSW,203,7.0,20.0,91,0.00,,,0.11,Wunderground v.1.13,2013-02-08 04:08:00,
2013-02-07 23:10:00,69.8,67.1,29.92,SSW,203,7.0,20.0,91,0.00,,,0.11,Wunderground v.1.13,2013-02-08 04:10:00,
2013-02-07 23:12:00,69.8,67.1,29.92,SSW,203,7.0,20.0,91,0.00,,,0.11,Wunderground v.1.13,2013-02-08 04:12:00,
2013-02-07 23:14:00,69.8,67.1,29.92,SSW,203,7.0,20.0,91,0.00,,,0.11,Wunderground v.1.13,2013-02-08 04:14:00,
2013-02-07 23:16:00,69.8,67.1,29.92,SSW,203,7.0,20.0,91,0.00,,,0.11,Wunderground v.1.13,2013-02-08 04:16:00,
2013-02-07 23:18:00,69.8,67.1,29.92,SSW,203,7.0,20.0,91,0.00,,,0.11,Wunderground v.1.13,2013-02-08 04:18:00,
2013-02-07 23:20:00,69.8,67.1,29.92,SSW,203,7.0,20.0,91,0.00,,,0.11,Wunderground v.1.13,2013-02-08 04:20:00,
2013-02-07 23:22:00,69.8,67.1,29.92,SSW,203,7.0,20.0,91,0.00,,,0.11,Wunderground v.1.13,2013-02-08 04:22:00,
2013-02-07 23:24:00,70.1,67.3,29.92,SSW,203,7.0,17.0,91,0.00,,,0.11,Wunderground v.1.13,2013-02-08 04:24:00,
2013-02-07 23:26:00,70.1,67.3,29.92,SSW,203,7.0,17.0,91,0.00,,,0.11,Wunderground v.1.13,2013-02-08 04:26:00,
2013-02-07 23:28:00,70.1,67.3,29.92,SSW,203,7.0,17.0,91,0.00,,,0.11,Wunderground v.1.13,2013-02-08 04:28:00,
2013-02-07 23:30:00,70.1,67.3,29.92,SSW,203,7.0,17.0,91,0.00,,,0.11,Wunderground v.1.13,2013-02-08 04:30:00,
2013-02-07 23:32:00,70.1,67.3,29.92,SSW,203,7.0,17.0,91,0.00,,,0.11,Wunderground v.1.13,2013-02-08 04:32:00,
2013-02-07 23:34:00,70.1,67.3,29.92,SSW,203,7.0,17.0,91,0.00,,,0.11,Wunderground v.1.13,2013-02-08 04:34:00,
2013-02-07 23:38:00,69.8,67.1,29.91,SSW,203,5.0,14.0,91,0.00,,,0.11,Wunderground v.1.13,2013-02-08 04:38:00,
2013-02-07 23:40:00,69.8,67.1,29.91,SSW,203,5.0,14.0,91,0.00,,,0.11,Wunderground v.1.13,2013-02-08 04:40:00,
2013-02-07 23:42:00,69.8,67.1,29.91,SSW,203,5.0,14.0,91,0.00,,,0.11,Wunderground v.1.13,2013-02-08 04:42:00,
2013-02-07 23:44:00,69.8,67.1,29.91,SSW,203,5.0,14.0,91,0.00,,,0.11,Wunderground v.1.13,2013-02-08 04:44:00,
2013-02-07 23:46:00,69.8,67.1,29.91,SSW,203,5.0,14.0,91,0.00,,,0.11,Wunderground v.1.13,2013-02-08 04:46:00,
2013-02-07 23:48:00,69.8,67.1,29.91,SSW,203,5.0,14.0,91,0.00,,,0.11,Wunderground v.1.13,2013-02-08 04:48:00,
2013-02-07 23:50:00,69.8,67.1,29.91,SSW,203,5.0,14.0,91,0.00,,,0.11,Wunderground v.1.13,2013-02-08 04:50:00,
2013-02-07 23:52:00,69.8,67.1,29.91,SSW,203,5.0,14.0,91,0.00,,,0.11,Wunderground v.1.13,2013-02-08 04:52:00,
2013-02-07 23:54:00,69.5,67.1,29.91,SSW,203,4.0,13.0,92,0.00,,,0.11,Wunderground v.1.13,2013-02-08 04:54:00,
2013-02-07 23:56:00,69.5,67.1,29.91,SSW,203,4.0,13.0,92,0.00,,,0.11,Wunderground v.1.13,2013-02-08 04:56:00,
2013-02-07 23:58:00,69.5,67.1,29.91,SSW,203,4.0,13.0,92,0.00,,,0.11,Wunderground v.1.13,2013-02-08 04:58:00,